<?xml version="1.0" encoding="UTF-8" standalone="no" ?>
<gpx xmlns="http://www.topografix.com/GPX/1/1" xmlns:xsi="http://www.w3.org/2001/XMLSchema-instance" xsi:schemaLocation="http://www.topografix.com/GPX/1/1 http://www.topografix.com/GPX/1/1/gpx.xsd" version="1.1" creator="VisuGPX - https://www.visugpx.com">
  <metadata>
    <name>VTT - Jouques</name>
    <desc><![CDATA[Aucune difficulté]]></desc>
  </metadata>
  <trk>
    <name><![CDATA[VTT - Jouques]]></name>
    <trkseg>
      <trkpt lat="43.637" lon="5.63841">
        <ele>271.39999389648</ele>
        <time>2012-12-15T08:37:48.000Z</time>
      </trkpt>
      <trkpt lat="43.63683" lon="5.63769">
        <ele>269.20001220703</ele>
        <time>2012-12-15T08:40:18.000Z</time>
      </trkpt>
      <trkpt lat="43.63665" lon="5.63708">
        <ele>269.39999389648</ele>
        <time>2012-12-15T08:40:34.000Z</time>
      </trkpt>
      <trkpt lat="43.63664" lon="5.63637">
        <ele>269.79998779297</ele>
        <time>2012-12-15T08:40:51.000Z</time>
      </trkpt>
      <trkpt lat="43.6368" lon="5.63566">
        <ele>267</ele>
        <time>2012-12-15T08:41:06.000Z</time>
      </trkpt>
      <trkpt lat="43.63695" lon="5.63493">
        <ele>263.39999389648</ele>
        <time>2012-12-15T08:41:18.000Z</time>
      </trkpt>
      <trkpt lat="43.63718" lon="5.63401">
        <ele>261.20001220703</ele>
        <time>2012-12-15T08:41:29.000Z</time>
      </trkpt>
      <trkpt lat="43.63721" lon="5.6334">
        <ele>257.79998779297</ele>
        <time>2012-12-15T08:41:40.000Z</time>
      </trkpt>
      <trkpt lat="43.63689" lon="5.63294">
        <ele>259.60000610352</ele>
        <time>2012-12-15T08:41:50.000Z</time>
      </trkpt>
      <trkpt lat="43.63656" lon="5.63251">
        <ele>260.79998779297</ele>
        <time>2012-12-15T08:42:00.000Z</time>
      </trkpt>
      <trkpt lat="43.63617" lon="5.63219">
        <ele>260</ele>
        <time>2012-12-15T08:42:10.000Z</time>
      </trkpt>
      <trkpt lat="43.63578" lon="5.63186">
        <ele>259.60000610352</ele>
        <time>2012-12-15T08:42:19.000Z</time>
      </trkpt>
      <trkpt lat="43.63537" lon="5.63152">
        <ele>257.60000610352</ele>
        <time>2012-12-15T08:42:28.000Z</time>
      </trkpt>
      <trkpt lat="43.63514" lon="5.63098">
        <ele>257</ele>
        <time>2012-12-15T08:42:36.000Z</time>
      </trkpt>
      <trkpt lat="43.63514" lon="5.63027">
        <ele>255</ele>
        <time>2012-12-15T08:42:44.000Z</time>
      </trkpt>
      <trkpt lat="43.63517" lon="5.62956">
        <ele>254.80000305176</ele>
        <time>2012-12-15T08:42:52.000Z</time>
      </trkpt>
      <trkpt lat="43.63522" lon="5.62886">
        <ele>254.80000305176</ele>
        <time>2012-12-15T08:43:00.000Z</time>
      </trkpt>
      <trkpt lat="43.63526" lon="5.62824">
        <ele>254</ele>
        <time>2012-12-15T08:43:08.000Z</time>
      </trkpt>
      <trkpt lat="43.63529" lon="5.62759">
        <ele>252.60000610352</ele>
        <time>2012-12-15T08:43:17.000Z</time>
      </trkpt>
      <trkpt lat="43.63531" lon="5.62695">
        <ele>252.39999389648</ele>
        <time>2012-12-15T08:43:25.000Z</time>
      </trkpt>
      <trkpt lat="43.63535" lon="5.62629">
        <ele>251.39999389648</ele>
        <time>2012-12-15T08:43:34.000Z</time>
      </trkpt>
      <trkpt lat="43.63524" lon="5.62573">
        <ele>248.80000305176</ele>
        <time>2012-12-15T08:43:44.000Z</time>
      </trkpt>
      <trkpt lat="43.6353" lon="5.62504">
        <ele>248.39999389648</ele>
        <time>2012-12-15T08:43:55.000Z</time>
      </trkpt>
      <trkpt lat="43.63535" lon="5.62441">
        <ele>246.19999694824</ele>
        <time>2012-12-15T08:44:03.000Z</time>
      </trkpt>
      <trkpt lat="43.6355" lon="5.62382">
        <ele>247.80000305176</ele>
        <time>2012-12-15T08:44:11.000Z</time>
      </trkpt>
      <trkpt lat="43.63573" lon="5.62321">
        <ele>250.80000305176</ele>
        <time>2012-12-15T08:44:20.000Z</time>
      </trkpt>
      <trkpt lat="43.63594" lon="5.62267">
        <ele>249.80000305176</ele>
        <time>2012-12-15T08:44:32.000Z</time>
      </trkpt>
      <trkpt lat="43.6355" lon="5.62262">
        <ele>252.39999389648</ele>
        <time>2012-12-15T08:44:48.000Z</time>
      </trkpt>
      <trkpt lat="43.63502" lon="5.6226">
        <ele>256</ele>
        <time>2012-12-15T08:45:03.000Z</time>
      </trkpt>
      <trkpt lat="43.63476" lon="5.62216">
        <ele>256.39999389648</ele>
        <time>2012-12-15T08:45:16.000Z</time>
      </trkpt>
      <trkpt lat="43.63442" lon="5.62175">
        <ele>257.79998779297</ele>
        <time>2012-12-15T08:45:30.000Z</time>
      </trkpt>
      <trkpt lat="43.63413" lon="5.62127">
        <ele>258</ele>
        <time>2012-12-15T08:45:43.000Z</time>
      </trkpt>
      <trkpt lat="43.63368" lon="5.62101">
        <ele>257</ele>
        <time>2012-12-15T08:45:52.000Z</time>
      </trkpt>
      <trkpt lat="43.63349" lon="5.62041">
        <ele>255.39999389648</ele>
        <time>2012-12-15T08:46:02.000Z</time>
      </trkpt>
      <trkpt lat="43.63328" lon="5.61984">
        <ele>254.39999389648</ele>
        <time>2012-12-15T08:46:11.000Z</time>
      </trkpt>
      <trkpt lat="43.63298" lon="5.6193">
        <ele>253.19999694824</ele>
        <time>2012-12-15T08:46:19.000Z</time>
      </trkpt>
      <trkpt lat="43.63269" lon="5.61879">
        <ele>253.60000610352</ele>
        <time>2012-12-15T08:46:28.000Z</time>
      </trkpt>
      <trkpt lat="43.63242" lon="5.61825">
        <ele>253</ele>
        <time>2012-12-15T08:46:38.000Z</time>
      </trkpt>
      <trkpt lat="43.63224" lon="5.61764">
        <ele>253</ele>
        <time>2012-12-15T08:46:49.000Z</time>
      </trkpt>
      <trkpt lat="43.63182" lon="5.6175">
        <ele>254.39999389648</ele>
        <time>2012-12-15T08:47:02.000Z</time>
      </trkpt>
      <trkpt lat="43.6317" lon="5.61703">
        <ele>256.39999389648</ele>
        <time>2012-12-15T08:47:20.000Z</time>
      </trkpt>
      <trkpt lat="43.63137" lon="5.61658">
        <ele>260.79998779297</ele>
        <time>2012-12-15T08:47:38.000Z</time>
      </trkpt>
      <trkpt lat="43.63101" lon="5.61617">
        <ele>263.39999389648</ele>
        <time>2012-12-15T08:47:55.000Z</time>
      </trkpt>
      <trkpt lat="43.63062" lon="5.61583">
        <ele>265.60000610352</ele>
        <time>2012-12-15T08:48:10.000Z</time>
      </trkpt>
      <trkpt lat="43.63036" lon="5.61525">
        <ele>265.20001220703</ele>
        <time>2012-12-15T08:48:27.000Z</time>
      </trkpt>
      <trkpt lat="43.63024" lon="5.61456">
        <ele>264</ele>
        <time>2012-12-15T08:48:40.000Z</time>
      </trkpt>
      <trkpt lat="43.63016" lon="5.61392">
        <ele>262.39999389648</ele>
        <time>2012-12-15T08:48:50.000Z</time>
      </trkpt>
      <trkpt lat="43.62995" lon="5.6133">
        <ele>259.39999389648</ele>
        <time>2012-12-15T08:48:59.000Z</time>
      </trkpt>
      <trkpt lat="43.6298" lon="5.61271">
        <ele>260.60000610352</ele>
        <time>2012-12-15T08:49:08.000Z</time>
      </trkpt>
      <trkpt lat="43.62968" lon="5.61209">
        <ele>262.60000610352</ele>
        <time>2012-12-15T08:49:19.000Z</time>
      </trkpt>
      <trkpt lat="43.62931" lon="5.61178">
        <ele>261.79998779297</ele>
        <time>2012-12-15T08:49:31.000Z</time>
      </trkpt>
      <trkpt lat="43.62898" lon="5.61133">
        <ele>262.39999389648</ele>
        <time>2012-12-15T08:49:44.000Z</time>
      </trkpt>
      <trkpt lat="43.62881" lon="5.61074">
        <ele>265</ele>
        <time>2012-12-15T08:49:59.000Z</time>
      </trkpt>
      <trkpt lat="43.62886" lon="5.6101">
        <ele>269.79998779297</ele>
        <time>2012-12-15T08:50:15.000Z</time>
      </trkpt>
      <trkpt lat="43.62892" lon="5.60946">
        <ele>274.20001220703</ele>
        <time>2012-12-15T08:50:33.000Z</time>
      </trkpt>
      <trkpt lat="43.62868" lon="5.60892">
        <ele>276.39999389648</ele>
        <time>2012-12-15T08:50:53.000Z</time>
      </trkpt>
      <trkpt lat="43.62852" lon="5.60834">
        <ele>278.79998779297</ele>
        <time>2012-12-15T08:51:12.000Z</time>
      </trkpt>
      <trkpt lat="43.62852" lon="5.6077">
        <ele>276.20001220703</ele>
        <time>2012-12-15T08:51:22.000Z</time>
      </trkpt>
      <trkpt lat="43.62845" lon="5.60707">
        <ele>273.39999389648</ele>
        <time>2012-12-15T08:51:31.000Z</time>
      </trkpt>
      <trkpt lat="43.62808" lon="5.60662">
        <ele>272.39999389648</ele>
        <time>2012-12-15T08:51:40.000Z</time>
      </trkpt>
      <trkpt lat="43.6277" lon="5.60628">
        <ele>273.60000610352</ele>
        <time>2012-12-15T08:51:50.000Z</time>
      </trkpt>
      <trkpt lat="43.62734" lon="5.60584">
        <ele>275.60000610352</ele>
        <time>2012-12-15T08:52:01.000Z</time>
      </trkpt>
      <trkpt lat="43.627" lon="5.60539">
        <ele>277</ele>
        <time>2012-12-15T08:52:15.000Z</time>
      </trkpt>
      <trkpt lat="43.62668" lon="5.60494">
        <ele>278.20001220703</ele>
        <time>2012-12-15T08:52:29.000Z</time>
      </trkpt>
      <trkpt lat="43.62642" lon="5.60433">
        <ele>281.60000610352</ele>
        <time>2012-12-15T08:52:42.000Z</time>
      </trkpt>
      <trkpt lat="43.62632" lon="5.60368">
        <ele>285.39999389648</ele>
        <time>2012-12-15T08:52:58.000Z</time>
      </trkpt>
      <trkpt lat="43.62609" lon="5.6031">
        <ele>289.39999389648</ele>
        <time>2012-12-15T08:53:13.000Z</time>
      </trkpt>
      <trkpt lat="43.62568" lon="5.60278">
        <ele>292</ele>
        <time>2012-12-15T08:53:32.000Z</time>
      </trkpt>
      <trkpt lat="43.62531" lon="5.60232">
        <ele>295</ele>
        <time>2012-12-15T08:53:51.000Z</time>
      </trkpt>
      <trkpt lat="43.62499" lon="5.60186">
        <ele>296.39999389648</ele>
        <time>2012-12-15T08:54:10.000Z</time>
      </trkpt>
      <trkpt lat="43.62492" lon="5.60123">
        <ele>298.20001220703</ele>
        <time>2012-12-15T08:54:30.000Z</time>
      </trkpt>
      <trkpt lat="43.6249" lon="5.60057">
        <ele>298.60000610352</ele>
        <time>2012-12-15T08:54:49.000Z</time>
      </trkpt>
      <trkpt lat="43.62489" lon="5.59997">
        <ele>297</ele>
        <time>2012-12-15T08:55:01.000Z</time>
      </trkpt>
      <trkpt lat="43.62497" lon="5.59932">
        <ele>296.79998779297</ele>
        <time>2012-12-15T08:55:13.000Z</time>
      </trkpt>
      <trkpt lat="43.62511" lon="5.59869">
        <ele>297</ele>
        <time>2012-12-15T08:55:27.000Z</time>
      </trkpt>
      <trkpt lat="43.62488" lon="5.59831">
        <ele>294.79998779297</ele>
        <time>2012-12-15T08:55:40.000Z</time>
      </trkpt>
      <trkpt lat="43.6245" lon="5.59794">
        <ele>290.60000610352</ele>
        <time>2012-12-15T08:55:54.000Z</time>
      </trkpt>
      <trkpt lat="43.62413" lon="5.5975">
        <ele>287.39999389648</ele>
        <time>2012-12-15T08:56:02.000Z</time>
      </trkpt>
      <trkpt lat="43.62374" lon="5.59707">
        <ele>291.60000610352</ele>
        <time>2012-12-15T08:56:11.000Z</time>
      </trkpt>
      <trkpt lat="43.6233" lon="5.59679">
        <ele>293.60000610352</ele>
        <time>2012-12-15T08:56:22.000Z</time>
      </trkpt>
      <trkpt lat="43.62289" lon="5.59649">
        <ele>296</ele>
        <time>2012-12-15T08:56:38.000Z</time>
      </trkpt>
      <trkpt lat="43.62251" lon="5.59614">
        <ele>300.60000610352</ele>
        <time>2012-12-15T08:56:54.000Z</time>
      </trkpt>
      <trkpt lat="43.62211" lon="5.59584">
        <ele>303</ele>
        <time>2012-12-15T08:57:09.000Z</time>
      </trkpt>
      <trkpt lat="43.62164" lon="5.59591">
        <ele>300.39999389648</ele>
        <time>2012-12-15T08:57:22.000Z</time>
      </trkpt>
      <trkpt lat="43.62119" lon="5.59594">
        <ele>300.79998779297</ele>
        <time>2012-12-15T08:57:34.000Z</time>
      </trkpt>
      <trkpt lat="43.62074" lon="5.59607">
        <ele>300.60000610352</ele>
        <time>2012-12-15T08:57:47.000Z</time>
      </trkpt>
      <trkpt lat="43.62028" lon="5.59602">
        <ele>301.79998779297</ele>
        <time>2012-12-15T08:58:00.000Z</time>
      </trkpt>
      <trkpt lat="43.61981" lon="5.59602">
        <ele>302.20001220703</ele>
        <time>2012-12-15T08:58:13.000Z</time>
      </trkpt>
      <trkpt lat="43.61936" lon="5.59597">
        <ele>302.39999389648</ele>
        <time>2012-12-15T08:58:26.000Z</time>
      </trkpt>
      <trkpt lat="43.61891" lon="5.59609">
        <ele>305.60000610352</ele>
        <time>2012-12-15T08:58:42.000Z</time>
      </trkpt>
      <trkpt lat="43.61911" lon="5.59555">
        <ele>308</ele>
        <time>2012-12-15T08:59:01.000Z</time>
      </trkpt>
      <trkpt lat="43.61918" lon="5.5949">
        <ele>316</ele>
        <time>2012-12-15T08:59:17.000Z</time>
      </trkpt>
      <trkpt lat="43.61956" lon="5.59463">
        <ele>321.20001220703</ele>
        <time>2012-12-15T08:59:40.000Z</time>
      </trkpt>
      <trkpt lat="43.61961" lon="5.59409">
        <ele>327</ele>
        <time>2012-12-15T09:00:06.000Z</time>
      </trkpt>
      <trkpt lat="43.61961" lon="5.59348">
        <ele>330.60000610352</ele>
        <time>2012-12-15T09:00:31.000Z</time>
      </trkpt>
      <trkpt lat="43.61962" lon="5.59284">
        <ele>334.20001220703</ele>
        <time>2012-12-15T09:00:49.000Z</time>
      </trkpt>
      <trkpt lat="43.61992" lon="5.5924">
        <ele>336.79998779297</ele>
        <time>2012-12-15T09:01:13.000Z</time>
      </trkpt>
      <trkpt lat="43.61974" lon="5.59193">
        <ele>337.79998779297</ele>
        <time>2012-12-15T09:01:35.000Z</time>
      </trkpt>
      <trkpt lat="43.61935" lon="5.59154">
        <ele>341.20001220703</ele>
        <time>2012-12-15T09:01:56.000Z</time>
      </trkpt>
      <trkpt lat="43.6189" lon="5.59135">
        <ele>345.60000610352</ele>
        <time>2012-12-15T09:02:16.000Z</time>
      </trkpt>
      <trkpt lat="43.61852" lon="5.59096">
        <ele>350.20001220703</ele>
        <time>2012-12-15T09:02:39.000Z</time>
      </trkpt>
      <trkpt lat="43.61806" lon="5.59076">
        <ele>353.20001220703</ele>
        <time>2012-12-15T09:03:01.000Z</time>
      </trkpt>
      <trkpt lat="43.61757" lon="5.59056">
        <ele>355.79998779297</ele>
        <time>2012-12-15T09:03:20.000Z</time>
      </trkpt>
      <trkpt lat="43.61721" lon="5.59011">
        <ele>356.39999389648</ele>
        <time>2012-12-15T09:03:40.000Z</time>
      </trkpt>
      <trkpt lat="43.61672" lon="5.58992">
        <ele>359.20001220703</ele>
        <time>2012-12-15T09:04:00.000Z</time>
      </trkpt>
      <trkpt lat="43.61624" lon="5.58995">
        <ele>362.39999389648</ele>
        <time>2012-12-15T09:04:18.000Z</time>
      </trkpt>
      <trkpt lat="43.61581" lon="5.58991">
        <ele>364</ele>
        <time>2012-12-15T09:04:35.000Z</time>
      </trkpt>
      <trkpt lat="43.61538" lon="5.58963">
        <ele>363.20001220703</ele>
        <time>2012-12-15T09:04:55.000Z</time>
      </trkpt>
      <trkpt lat="43.61495" lon="5.58942">
        <ele>365.60000610352</ele>
        <time>2012-12-15T09:08:10.000Z</time>
      </trkpt>
      <trkpt lat="43.61448" lon="5.58927">
        <ele>369.60000610352</ele>
        <time>2012-12-15T09:08:28.000Z</time>
      </trkpt>
      <trkpt lat="43.61404" lon="5.58915">
        <ele>373.79998779297</ele>
        <time>2012-12-15T09:08:47.000Z</time>
      </trkpt>
      <trkpt lat="43.61369" lon="5.58872">
        <ele>379</ele>
        <time>2012-12-15T09:09:08.000Z</time>
      </trkpt>
      <trkpt lat="43.61324" lon="5.58859">
        <ele>385</ele>
        <time>2012-12-15T09:09:30.000Z</time>
      </trkpt>
      <trkpt lat="43.61279" lon="5.58839">
        <ele>391.39999389648</ele>
        <time>2012-12-15T09:09:51.000Z</time>
      </trkpt>
      <trkpt lat="43.6124" lon="5.58803">
        <ele>395.39999389648</ele>
        <time>2012-12-15T09:10:14.000Z</time>
      </trkpt>
      <trkpt lat="43.61195" lon="5.58784">
        <ele>398.79998779297</ele>
        <time>2012-12-15T09:10:38.000Z</time>
      </trkpt>
      <trkpt lat="43.61152" lon="5.5876">
        <ele>402.79998779297</ele>
        <time>2012-12-15T09:11:00.000Z</time>
      </trkpt>
      <trkpt lat="43.61112" lon="5.58733">
        <ele>407.79998779297</ele>
        <time>2012-12-15T09:11:22.000Z</time>
      </trkpt>
      <trkpt lat="43.61073" lon="5.58701">
        <ele>413.60000610352</ele>
        <time>2012-12-15T09:11:49.000Z</time>
      </trkpt>
      <trkpt lat="43.61037" lon="5.58663">
        <ele>421.79998779297</ele>
        <time>2012-12-15T09:12:23.000Z</time>
      </trkpt>
      <trkpt lat="43.61022" lon="5.58605">
        <ele>429</ele>
        <time>2012-12-15T09:12:55.000Z</time>
      </trkpt>
      <trkpt lat="43.60979" lon="5.58601">
        <ele>434.60000610352</ele>
        <time>2012-12-15T09:13:27.000Z</time>
      </trkpt>
      <trkpt lat="43.60939" lon="5.58588">
        <ele>438.60000610352</ele>
        <time>2012-12-15T09:13:57.000Z</time>
      </trkpt>
      <trkpt lat="43.60908" lon="5.58543">
        <ele>445.79998779297</ele>
        <time>2012-12-15T09:14:25.000Z</time>
      </trkpt>
      <trkpt lat="43.60869" lon="5.58509">
        <ele>447.39999389648</ele>
        <time>2012-12-15T09:14:44.000Z</time>
      </trkpt>
      <trkpt lat="43.60832" lon="5.58472">
        <ele>450</ele>
        <time>2012-12-15T09:14:56.000Z</time>
      </trkpt>
      <trkpt lat="43.60801" lon="5.58427">
        <ele>454.79998779297</ele>
        <time>2012-12-15T09:15:07.000Z</time>
      </trkpt>
      <trkpt lat="43.60762" lon="5.58396">
        <ele>453.20001220703</ele>
        <time>2012-12-15T09:15:19.000Z</time>
      </trkpt>
      <trkpt lat="43.60733" lon="5.58349">
        <ele>454.79998779297</ele>
        <time>2012-12-15T09:20:07.000Z</time>
      </trkpt>
      <trkpt lat="43.60702" lon="5.58302">
        <ele>459</ele>
        <time>2012-12-15T09:20:23.000Z</time>
      </trkpt>
      <trkpt lat="43.60678" lon="5.58248">
        <ele>463.60000610352</ele>
        <time>2012-12-15T09:20:41.000Z</time>
      </trkpt>
      <trkpt lat="43.60684" lon="5.58183">
        <ele>463</ele>
        <time>2012-12-15T09:21:04.000Z</time>
      </trkpt>
      <trkpt lat="43.60657" lon="5.58135">
        <ele>465.60000610352</ele>
        <time>2012-12-15T09:21:24.000Z</time>
      </trkpt>
      <trkpt lat="43.60631" lon="5.58097">
        <ele>461.39999389648</ele>
        <time>2012-12-15T09:21:39.000Z</time>
      </trkpt>
      <trkpt lat="43.60603" lon="5.58039">
        <ele>451.39999389648</ele>
        <time>2012-12-15T09:21:46.000Z</time>
      </trkpt>
      <trkpt lat="43.6058" lon="5.57979">
        <ele>442</ele>
        <time>2012-12-15T09:21:52.000Z</time>
      </trkpt>
      <trkpt lat="43.60567" lon="5.57911">
        <ele>438.79998779297</ele>
        <time>2012-12-15T09:21:58.000Z</time>
      </trkpt>
      <trkpt lat="43.60552" lon="5.57851">
        <ele>431.79998779297</ele>
        <time>2012-12-15T09:22:03.000Z</time>
      </trkpt>
      <trkpt lat="43.60521" lon="5.57807">
        <ele>430.60000610352</ele>
        <time>2012-12-15T09:22:09.000Z</time>
      </trkpt>
      <trkpt lat="43.60483" lon="5.57766">
        <ele>432.60000610352</ele>
        <time>2012-12-15T09:22:17.000Z</time>
      </trkpt>
      <trkpt lat="43.60436" lon="5.57764">
        <ele>436.39999389648</ele>
        <time>2012-12-15T09:23:04.000Z</time>
      </trkpt>
      <trkpt lat="43.6039" lon="5.57755">
        <ele>438.60000610352</ele>
        <time>2012-12-15T09:23:23.000Z</time>
      </trkpt>
      <trkpt lat="43.60343" lon="5.57747">
        <ele>441</ele>
        <time>2012-12-15T09:23:40.000Z</time>
      </trkpt>
      <trkpt lat="43.60295" lon="5.57761">
        <ele>445.60000610352</ele>
        <time>2012-12-15T09:23:58.000Z</time>
      </trkpt>
      <trkpt lat="43.60255" lon="5.57796">
        <ele>451.20001220703</ele>
        <time>2012-12-15T09:24:14.000Z</time>
      </trkpt>
      <trkpt lat="43.60212" lon="5.57794">
        <ele>455.20001220703</ele>
        <time>2012-12-15T09:24:31.000Z</time>
      </trkpt>
      <trkpt lat="43.60166" lon="5.57778">
        <ele>459</ele>
        <time>2012-12-15T09:24:49.000Z</time>
      </trkpt>
      <trkpt lat="43.60125" lon="5.57752">
        <ele>461.60000610352</ele>
        <time>2012-12-15T09:25:06.000Z</time>
      </trkpt>
      <trkpt lat="43.60096" lon="5.57704">
        <ele>465.39999389648</ele>
        <time>2012-12-15T09:25:27.000Z</time>
      </trkpt>
      <trkpt lat="43.60052" lon="5.57685">
        <ele>468.20001220703</ele>
        <time>2012-12-15T09:25:48.000Z</time>
      </trkpt>
      <trkpt lat="43.6003" lon="5.57732">
        <ele>470.39999389648</ele>
        <time>2012-12-15T09:26:09.000Z</time>
      </trkpt>
      <trkpt lat="43.60005" lon="5.57786">
        <ele>476.20001220703</ele>
        <time>2012-12-15T09:26:31.000Z</time>
      </trkpt>
      <trkpt lat="43.59972" lon="5.57832">
        <ele>484.20001220703</ele>
        <time>2012-12-15T09:26:53.000Z</time>
      </trkpt>
      <trkpt lat="43.59934" lon="5.57865">
        <ele>491.39999389648</ele>
        <time>2012-12-15T09:27:15.000Z</time>
      </trkpt>
      <trkpt lat="43.59911" lon="5.57924">
        <ele>493.60000610352</ele>
        <time>2012-12-15T09:27:41.000Z</time>
      </trkpt>
      <trkpt lat="43.59884" lon="5.57978">
        <ele>498.60000610352</ele>
        <time>2012-12-15T09:28:10.000Z</time>
      </trkpt>
      <trkpt lat="43.59837" lon="5.57988">
        <ele>498.60000610352</ele>
        <time>2012-12-15T09:28:35.000Z</time>
      </trkpt>
      <trkpt lat="43.5979" lon="5.57985">
        <ele>502.60000610352</ele>
        <time>2012-12-15T09:28:56.000Z</time>
      </trkpt>
      <trkpt lat="43.59744" lon="5.57988">
        <ele>506.60000610352</ele>
        <time>2012-12-15T09:29:17.000Z</time>
      </trkpt>
      <trkpt lat="43.59717" lon="5.58037">
        <ele>509.79998779297</ele>
        <time>2012-12-15T09:29:38.000Z</time>
      </trkpt>
      <trkpt lat="43.5969" lon="5.58092">
        <ele>510.39999389648</ele>
        <time>2012-12-15T09:29:58.000Z</time>
      </trkpt>
      <trkpt lat="43.59644" lon="5.581">
        <ele>510.79998779297</ele>
        <time>2012-12-15T09:30:18.000Z</time>
      </trkpt>
      <trkpt lat="43.59597" lon="5.58091">
        <ele>513.20001220703</ele>
        <time>2012-12-15T09:30:37.000Z</time>
      </trkpt>
      <trkpt lat="43.59553" lon="5.58115">
        <ele>516.59997558594</ele>
        <time>2012-12-15T09:30:55.000Z</time>
      </trkpt>
      <trkpt lat="43.5951" lon="5.58145">
        <ele>517.59997558594</ele>
        <time>2012-12-15T09:31:11.000Z</time>
      </trkpt>
      <trkpt lat="43.59472" lon="5.58178">
        <ele>519.20001220703</ele>
        <time>2012-12-15T09:31:27.000Z</time>
      </trkpt>
      <trkpt lat="43.59439" lon="5.58226">
        <ele>519.79998779297</ele>
        <time>2012-12-15T09:31:44.000Z</time>
      </trkpt>
      <trkpt lat="43.59412" lon="5.58278">
        <ele>519.59997558594</ele>
        <time>2012-12-15T09:32:00.000Z</time>
      </trkpt>
      <trkpt lat="43.59382" lon="5.58326">
        <ele>524</ele>
        <time>2012-12-15T09:32:17.000Z</time>
      </trkpt>
      <trkpt lat="43.59358" lon="5.58383">
        <ele>527.79998779297</ele>
        <time>2012-12-15T09:32:35.000Z</time>
      </trkpt>
      <trkpt lat="43.59331" lon="5.58436">
        <ele>529.79998779297</ele>
        <time>2012-12-15T09:32:53.000Z</time>
      </trkpt>
      <trkpt lat="43.59302" lon="5.58488">
        <ele>534.79998779297</ele>
        <time>2012-12-15T09:33:11.000Z</time>
      </trkpt>
      <trkpt lat="43.59266" lon="5.58526">
        <ele>535.79998779297</ele>
        <time>2012-12-15T09:33:28.000Z</time>
      </trkpt>
      <trkpt lat="43.59229" lon="5.58564">
        <ele>537.20001220703</ele>
        <time>2012-12-15T09:33:46.000Z</time>
      </trkpt>
      <trkpt lat="43.5919" lon="5.58599">
        <ele>540.40002441406</ele>
        <time>2012-12-15T09:34:04.000Z</time>
      </trkpt>
      <trkpt lat="43.59147" lon="5.58627">
        <ele>543.79998779297</ele>
        <time>2012-12-15T09:34:27.000Z</time>
      </trkpt>
      <trkpt lat="43.59112" lon="5.58663">
        <ele>546.59997558594</ele>
        <time>2012-12-15T09:34:52.000Z</time>
      </trkpt>
      <trkpt lat="43.59088" lon="5.58717">
        <ele>550.40002441406</ele>
        <time>2012-12-15T09:35:17.000Z</time>
      </trkpt>
      <trkpt lat="43.59049" lon="5.5875">
        <ele>550.59997558594</ele>
        <time>2012-12-15T09:35:40.000Z</time>
      </trkpt>
      <trkpt lat="43.59011" lon="5.58742">
        <ele>549.40002441406</ele>
        <time>2012-12-15T09:38:51.000Z</time>
      </trkpt>
      <trkpt lat="43.58979" lon="5.58694">
        <ele>548.40002441406</ele>
        <time>2012-12-15T09:39:09.000Z</time>
      </trkpt>
      <trkpt lat="43.5895" lon="5.58642">
        <ele>546.20001220703</ele>
        <time>2012-12-15T09:39:23.000Z</time>
      </trkpt>
      <trkpt lat="43.5892" lon="5.58593">
        <ele>545.59997558594</ele>
        <time>2012-12-15T09:39:34.000Z</time>
      </trkpt>
      <trkpt lat="43.58887" lon="5.58548">
        <ele>542.20001220703</ele>
        <time>2012-12-15T09:39:45.000Z</time>
      </trkpt>
      <trkpt lat="43.58859" lon="5.58499">
        <ele>540.79998779297</ele>
        <time>2012-12-15T09:39:56.000Z</time>
      </trkpt>
      <trkpt lat="43.58837" lon="5.58442">
        <ele>539.20001220703</ele>
        <time>2012-12-15T09:40:07.000Z</time>
      </trkpt>
      <trkpt lat="43.58824" lon="5.58383">
        <ele>536.59997558594</ele>
        <time>2012-12-15T09:40:19.000Z</time>
      </trkpt>
      <trkpt lat="43.58805" lon="5.58326">
        <ele>533</ele>
        <time>2012-12-15T09:40:29.000Z</time>
      </trkpt>
      <trkpt lat="43.58813" lon="5.58264">
        <ele>532.40002441406</ele>
        <time>2012-12-15T09:40:45.000Z</time>
      </trkpt>
      <trkpt lat="43.58823" lon="5.58197">
        <ele>529.40002441406</ele>
        <time>2012-12-15T09:40:57.000Z</time>
      </trkpt>
      <trkpt lat="43.58828" lon="5.58135">
        <ele>527</ele>
        <time>2012-12-15T09:41:09.000Z</time>
      </trkpt>
      <trkpt lat="43.58842" lon="5.58071">
        <ele>525.79998779297</ele>
        <time>2012-12-15T09:41:21.000Z</time>
      </trkpt>
      <trkpt lat="43.58853" lon="5.58007">
        <ele>524.40002441406</ele>
        <time>2012-12-15T09:41:31.000Z</time>
      </trkpt>
      <trkpt lat="43.58863" lon="5.5794">
        <ele>522.59997558594</ele>
        <time>2012-12-15T09:41:42.000Z</time>
      </trkpt>
      <trkpt lat="43.58874" lon="5.57877">
        <ele>520.40002441406</ele>
        <time>2012-12-15T09:41:52.000Z</time>
      </trkpt>
      <trkpt lat="43.58874" lon="5.57807">
        <ele>517.59997558594</ele>
        <time>2012-12-15T09:42:01.000Z</time>
      </trkpt>
      <trkpt lat="43.5884" lon="5.57768">
        <ele>513.40002441406</ele>
        <time>2012-12-15T09:42:09.000Z</time>
      </trkpt>
      <trkpt lat="43.58843" lon="5.57699">
        <ele>509</ele>
        <time>2012-12-15T09:42:18.000Z</time>
      </trkpt>
      <trkpt lat="43.58849" lon="5.57638">
        <ele>507.79998779297</ele>
        <time>2012-12-15T09:42:26.000Z</time>
      </trkpt>
      <trkpt lat="43.58804" lon="5.57602">
        <ele>506.39999389648</ele>
        <time>2012-12-15T09:42:36.000Z</time>
      </trkpt>
      <trkpt lat="43.58773" lon="5.57547">
        <ele>504</ele>
        <time>2012-12-15T09:42:44.000Z</time>
      </trkpt>
      <trkpt lat="43.58747" lon="5.57492">
        <ele>499.79998779297</ele>
        <time>2012-12-15T09:42:52.000Z</time>
      </trkpt>
      <trkpt lat="43.58744" lon="5.57425">
        <ele>496.79998779297</ele>
        <time>2012-12-15T09:43:00.000Z</time>
      </trkpt>
      <trkpt lat="43.58762" lon="5.57364">
        <ele>496</ele>
        <time>2012-12-15T09:43:08.000Z</time>
      </trkpt>
      <trkpt lat="43.58785" lon="5.57308">
        <ele>495.60000610352</ele>
        <time>2012-12-15T09:43:17.000Z</time>
      </trkpt>
      <trkpt lat="43.58783" lon="5.57244">
        <ele>491.39999389648</ele>
        <time>2012-12-15T09:43:27.000Z</time>
      </trkpt>
      <trkpt lat="43.58788" lon="5.57184">
        <ele>488.39999389648</ele>
        <time>2012-12-15T09:43:36.000Z</time>
      </trkpt>
      <trkpt lat="43.58765" lon="5.57127">
        <ele>484.79998779297</ele>
        <time>2012-12-15T09:43:44.000Z</time>
      </trkpt>
      <trkpt lat="43.58723" lon="5.57106">
        <ele>480.39999389648</ele>
        <time>2012-12-15T09:43:53.000Z</time>
      </trkpt>
      <trkpt lat="43.58675" lon="5.57102">
        <ele>476</ele>
        <time>2012-12-15T09:44:03.000Z</time>
      </trkpt>
      <trkpt lat="43.58637" lon="5.57073">
        <ele>473.39999389648</ele>
        <time>2012-12-15T09:44:13.000Z</time>
      </trkpt>
      <trkpt lat="43.58606" lon="5.57023">
        <ele>470.60000610352</ele>
        <time>2012-12-15T09:44:22.000Z</time>
      </trkpt>
      <trkpt lat="43.58585" lon="5.56968">
        <ele>465</ele>
        <time>2012-12-15T09:44:31.000Z</time>
      </trkpt>
      <trkpt lat="43.58592" lon="5.56898">
        <ele>462.39999389648</ele>
        <time>2012-12-15T09:44:40.000Z</time>
      </trkpt>
      <trkpt lat="43.58598" lon="5.56831">
        <ele>456.79998779297</ele>
        <time>2012-12-15T09:44:48.000Z</time>
      </trkpt>
      <trkpt lat="43.58577" lon="5.5681">
        <ele>457.60000610352</ele>
        <time>2012-12-15T09:45:02.000Z</time>
      </trkpt>
      <trkpt lat="43.58534" lon="5.56805">
        <ele>455.20001220703</ele>
        <time>2012-12-15T09:45:12.000Z</time>
      </trkpt>
      <trkpt lat="43.58493" lon="5.56795">
        <ele>453</ele>
        <time>2012-12-15T09:45:22.000Z</time>
      </trkpt>
      <trkpt lat="43.58465" lon="5.56743">
        <ele>450.39999389648</ele>
        <time>2012-12-15T09:45:36.000Z</time>
      </trkpt>
      <trkpt lat="43.58438" lon="5.56691">
        <ele>446.20001220703</ele>
        <time>2012-12-15T09:45:49.000Z</time>
      </trkpt>
      <trkpt lat="43.58431" lon="5.56627">
        <ele>440.79998779297</ele>
        <time>2012-12-15T09:46:07.000Z</time>
      </trkpt>
      <trkpt lat="43.58422" lon="5.56565">
        <ele>437.79998779297</ele>
        <time>2012-12-15T09:46:18.000Z</time>
      </trkpt>
      <trkpt lat="43.58397" lon="5.56521">
        <ele>436.39999389648</ele>
        <time>2012-12-15T09:46:27.000Z</time>
      </trkpt>
      <trkpt lat="43.58359" lon="5.56543">
        <ele>428.60000610352</ele>
        <time>2012-12-15T09:46:35.000Z</time>
      </trkpt>
      <trkpt lat="43.58321" lon="5.56558">
        <ele>426.39999389648</ele>
        <time>2012-12-15T09:49:27.000Z</time>
      </trkpt>
      <trkpt lat="43.58303" lon="5.56508">
        <ele>425.60000610352</ele>
        <time>2012-12-15T09:49:38.000Z</time>
      </trkpt>
      <trkpt lat="43.58297" lon="5.56441">
        <ele>423.60000610352</ele>
        <time>2012-12-15T09:49:46.000Z</time>
      </trkpt>
      <trkpt lat="43.58265" lon="5.56396">
        <ele>420</ele>
        <time>2012-12-15T09:49:56.000Z</time>
      </trkpt>
      <trkpt lat="43.58218" lon="5.5641">
        <ele>412.39999389648</ele>
        <time>2012-12-15T09:50:04.000Z</time>
      </trkpt>
      <trkpt lat="43.5817" lon="5.56406">
        <ele>408.60000610352</ele>
        <time>2012-12-15T09:50:12.000Z</time>
      </trkpt>
      <trkpt lat="43.58142" lon="5.56362">
        <ele>409.20001220703</ele>
        <time>2012-12-15T09:50:23.000Z</time>
      </trkpt>
      <trkpt lat="43.58107" lon="5.5632">
        <ele>408.39999389648</ele>
        <time>2012-12-15T09:50:38.000Z</time>
      </trkpt>
      <trkpt lat="43.5807" lon="5.56279">
        <ele>406.20001220703</ele>
        <time>2012-12-15T09:50:51.000Z</time>
      </trkpt>
      <trkpt lat="43.58041" lon="5.5623">
        <ele>406.79998779297</ele>
        <time>2012-12-15T09:51:12.000Z</time>
      </trkpt>
      <trkpt lat="43.57995" lon="5.56224">
        <ele>403</ele>
        <time>2012-12-15T09:51:24.000Z</time>
      </trkpt>
      <trkpt lat="43.57954" lon="5.56195">
        <ele>403.60000610352</ele>
        <time>2012-12-15T09:51:32.000Z</time>
      </trkpt>
      <trkpt lat="43.5792" lon="5.56148">
        <ele>402.39999389648</ele>
        <time>2012-12-15T09:51:41.000Z</time>
      </trkpt>
      <trkpt lat="43.57883" lon="5.56104">
        <ele>403.79998779297</ele>
        <time>2012-12-15T09:51:51.000Z</time>
      </trkpt>
      <trkpt lat="43.57845" lon="5.56072">
        <ele>399.20001220703</ele>
        <time>2012-12-15T09:52:00.000Z</time>
      </trkpt>
      <trkpt lat="43.57837" lon="5.56006">
        <ele>393.20001220703</ele>
        <time>2012-12-15T09:52:10.000Z</time>
      </trkpt>
      <trkpt lat="43.57855" lon="5.55952">
        <ele>398</ele>
        <time>2012-12-15T09:52:30.000Z</time>
      </trkpt>
      <trkpt lat="43.57892" lon="5.55915">
        <ele>399</ele>
        <time>2012-12-15T09:52:41.000Z</time>
      </trkpt>
      <trkpt lat="43.57924" lon="5.55863">
        <ele>398.60000610352</ele>
        <time>2012-12-15T09:52:53.000Z</time>
      </trkpt>
      <trkpt lat="43.57947" lon="5.55806">
        <ele>400.60000610352</ele>
        <time>2012-12-15T09:53:06.000Z</time>
      </trkpt>
      <trkpt lat="43.57961" lon="5.55742">
        <ele>397.79998779297</ele>
        <time>2012-12-15T09:53:19.000Z</time>
      </trkpt>
      <trkpt lat="43.57985" lon="5.55684">
        <ele>391.79998779297</ele>
        <time>2012-12-15T09:53:32.000Z</time>
      </trkpt>
      <trkpt lat="43.57995" lon="5.5562">
        <ele>388.79998779297</ele>
        <time>2012-12-15T09:53:45.000Z</time>
      </trkpt>
      <trkpt lat="43.57996" lon="5.55554">
        <ele>387.20001220703</ele>
        <time>2012-12-15T09:53:58.000Z</time>
      </trkpt>
      <trkpt lat="43.57963" lon="5.55522">
        <ele>389</ele>
        <time>2012-12-15T09:54:15.000Z</time>
      </trkpt>
      <trkpt lat="43.57922" lon="5.55563">
        <ele>393.20001220703</ele>
        <time>2012-12-15T09:54:38.000Z</time>
      </trkpt>
      <trkpt lat="43.57878" lon="5.55589">
        <ele>399.20001220703</ele>
        <time>2012-12-15T09:55:02.000Z</time>
      </trkpt>
      <trkpt lat="43.57836" lon="5.5562">
        <ele>404.20001220703</ele>
        <time>2012-12-15T09:55:25.000Z</time>
      </trkpt>
      <trkpt lat="43.57805" lon="5.55666">
        <ele>409.39999389648</ele>
        <time>2012-12-15T09:55:48.000Z</time>
      </trkpt>
      <trkpt lat="43.57767" lon="5.55702">
        <ele>417.79998779297</ele>
        <time>2012-12-15T09:56:12.000Z</time>
      </trkpt>
      <trkpt lat="43.57797" lon="5.55717">
        <ele>415.60000610352</ele>
        <time>2012-12-15T09:56:34.000Z</time>
      </trkpt>
      <trkpt lat="43.57844" lon="5.55702">
        <ele>408.39999389648</ele>
        <time>2012-12-15T09:56:56.000Z</time>
      </trkpt>
      <trkpt lat="43.57865" lon="5.55737">
        <ele>409.79998779297</ele>
        <time>2012-12-15T09:57:19.000Z</time>
      </trkpt>
      <trkpt lat="43.5784" lon="5.55788">
        <ele>415.60000610352</ele>
        <time>2012-12-15T09:57:41.000Z</time>
      </trkpt>
      <trkpt lat="43.57798" lon="5.55822">
        <ele>420.60000610352</ele>
        <time>2012-12-15T09:58:03.000Z</time>
      </trkpt>
      <trkpt lat="43.57753" lon="5.55825">
        <ele>426.79998779297</ele>
        <time>2012-12-15T09:58:23.000Z</time>
      </trkpt>
      <trkpt lat="43.57707" lon="5.55843">
        <ele>430.39999389648</ele>
        <time>2012-12-15T09:58:44.000Z</time>
      </trkpt>
      <trkpt lat="43.57661" lon="5.55849">
        <ele>433.79998779297</ele>
        <time>2012-12-15T09:59:05.000Z</time>
      </trkpt>
      <trkpt lat="43.57613" lon="5.55852">
        <ele>437.39999389648</ele>
        <time>2012-12-15T09:59:27.000Z</time>
      </trkpt>
      <trkpt lat="43.57567" lon="5.55849">
        <ele>443</ele>
        <time>2012-12-15T09:59:46.000Z</time>
      </trkpt>
      <trkpt lat="43.57522" lon="5.55847">
        <ele>451.20001220703</ele>
        <time>2012-12-15T10:00:06.000Z</time>
      </trkpt>
      <trkpt lat="43.57478" lon="5.55865">
        <ele>455.39999389648</ele>
        <time>2012-12-15T10:00:26.000Z</time>
      </trkpt>
      <trkpt lat="43.57438" lon="5.55899">
        <ele>456.20001220703</ele>
        <time>2012-12-15T10:00:45.000Z</time>
      </trkpt>
      <trkpt lat="43.57446" lon="5.55844">
        <ele>462.60000610352</ele>
        <time>2012-12-15T10:01:04.000Z</time>
      </trkpt>
      <trkpt lat="43.57432" lon="5.55784">
        <ele>465.39999389648</ele>
        <time>2012-12-15T10:01:25.000Z</time>
      </trkpt>
      <trkpt lat="43.57391" lon="5.55769">
        <ele>470.20001220703</ele>
        <time>2012-12-15T10:01:45.000Z</time>
      </trkpt>
      <trkpt lat="43.57345" lon="5.5577">
        <ele>475.79998779297</ele>
        <time>2012-12-15T10:02:03.000Z</time>
      </trkpt>
      <trkpt lat="43.57298" lon="5.55759">
        <ele>480</ele>
        <time>2012-12-15T10:02:19.000Z</time>
      </trkpt>
      <trkpt lat="43.57255" lon="5.55736">
        <ele>483</ele>
        <time>2012-12-15T10:02:33.000Z</time>
      </trkpt>
      <trkpt lat="43.57213" lon="5.55713">
        <ele>485.60000610352</ele>
        <time>2012-12-15T10:02:47.000Z</time>
      </trkpt>
      <trkpt lat="43.5717" lon="5.55689">
        <ele>491</ele>
        <time>2012-12-15T10:03:01.000Z</time>
      </trkpt>
      <trkpt lat="43.57126" lon="5.55663">
        <ele>494.20001220703</ele>
        <time>2012-12-15T10:03:17.000Z</time>
      </trkpt>
      <trkpt lat="43.57085" lon="5.55632">
        <ele>497</ele>
        <time>2012-12-15T10:03:32.000Z</time>
      </trkpt>
      <trkpt lat="43.57048" lon="5.55589">
        <ele>500.79998779297</ele>
        <time>2012-12-15T10:03:49.000Z</time>
      </trkpt>
      <trkpt lat="43.57013" lon="5.55542">
        <ele>505</ele>
        <time>2012-12-15T10:04:06.000Z</time>
      </trkpt>
      <trkpt lat="43.56973" lon="5.55502">
        <ele>507.39999389648</ele>
        <time>2012-12-15T10:04:18.000Z</time>
      </trkpt>
      <trkpt lat="43.56934" lon="5.55469">
        <ele>507.60000610352</ele>
        <time>2012-12-15T10:04:30.000Z</time>
      </trkpt>
      <trkpt lat="43.56898" lon="5.55422">
        <ele>507.79998779297</ele>
        <time>2012-12-15T10:04:42.000Z</time>
      </trkpt>
      <trkpt lat="43.56874" lon="5.55381">
        <ele>508.39999389648</ele>
        <time>2012-12-15T10:09:36.000Z</time>
      </trkpt>
      <trkpt lat="43.56829" lon="5.55396">
        <ele>508</ele>
        <time>2012-12-15T10:09:57.000Z</time>
      </trkpt>
      <trkpt lat="43.56787" lon="5.55417">
        <ele>506.79998779297</ele>
        <time>2012-12-15T10:10:10.000Z</time>
      </trkpt>
      <trkpt lat="43.56742" lon="5.55447">
        <ele>506.60000610352</ele>
        <time>2012-12-15T10:10:21.000Z</time>
      </trkpt>
      <trkpt lat="43.567" lon="5.55474">
        <ele>506.79998779297</ele>
        <time>2012-12-15T10:10:38.000Z</time>
      </trkpt>
      <trkpt lat="43.56662" lon="5.5551">
        <ele>506.60000610352</ele>
        <time>2012-12-15T10:10:52.000Z</time>
      </trkpt>
      <trkpt lat="43.56621" lon="5.55542">
        <ele>504</ele>
        <time>2012-12-15T10:11:05.000Z</time>
      </trkpt>
      <trkpt lat="43.56578" lon="5.55566">
        <ele>501.60000610352</ele>
        <time>2012-12-15T10:11:15.000Z</time>
      </trkpt>
      <trkpt lat="43.56542" lon="5.55606">
        <ele>500.20001220703</ele>
        <time>2012-12-15T10:11:23.000Z</time>
      </trkpt>
      <trkpt lat="43.56501" lon="5.55632">
        <ele>499</ele>
        <time>2012-12-15T10:11:32.000Z</time>
      </trkpt>
      <trkpt lat="43.56461" lon="5.55659">
        <ele>498.79998779297</ele>
        <time>2012-12-15T10:11:42.000Z</time>
      </trkpt>
      <trkpt lat="43.56415" lon="5.55678">
        <ele>498.60000610352</ele>
        <time>2012-12-15T10:11:53.000Z</time>
      </trkpt>
      <trkpt lat="43.56376" lon="5.55706">
        <ele>496.20001220703</ele>
        <time>2012-12-15T10:12:02.000Z</time>
      </trkpt>
      <trkpt lat="43.56357" lon="5.55761">
        <ele>494.20001220703</ele>
        <time>2012-12-15T10:12:10.000Z</time>
      </trkpt>
      <trkpt lat="43.56337" lon="5.55817">
        <ele>492.20001220703</ele>
        <time>2012-12-15T10:12:19.000Z</time>
      </trkpt>
      <trkpt lat="43.56352" lon="5.55875">
        <ele>493.20001220703</ele>
        <time>2012-12-15T10:12:33.000Z</time>
      </trkpt>
      <trkpt lat="43.56358" lon="5.55929">
        <ele>494</ele>
        <time>2012-12-15T10:12:49.000Z</time>
      </trkpt>
      <trkpt lat="43.56372" lon="5.55992">
        <ele>495</ele>
        <time>2012-12-15T10:13:05.000Z</time>
      </trkpt>
      <trkpt lat="43.56392" lon="5.56048">
        <ele>494.79998779297</ele>
        <time>2012-12-15T10:13:19.000Z</time>
      </trkpt>
      <trkpt lat="43.56418" lon="5.56103">
        <ele>496</ele>
        <time>2012-12-15T10:13:32.000Z</time>
      </trkpt>
      <trkpt lat="43.56446" lon="5.56151">
        <ele>497</ele>
        <time>2012-12-15T10:13:48.000Z</time>
      </trkpt>
      <trkpt lat="43.56461" lon="5.56209">
        <ele>499.39999389648</ele>
        <time>2012-12-15T10:14:03.000Z</time>
      </trkpt>
      <trkpt lat="43.56469" lon="5.56274">
        <ele>503.39999389648</ele>
        <time>2012-12-15T10:14:21.000Z</time>
      </trkpt>
      <trkpt lat="43.56481" lon="5.56334">
        <ele>507.39999389648</ele>
        <time>2012-12-15T10:14:40.000Z</time>
      </trkpt>
      <trkpt lat="43.56486" lon="5.56397">
        <ele>512.59997558594</ele>
        <time>2012-12-15T10:15:02.000Z</time>
      </trkpt>
      <trkpt lat="43.56509" lon="5.5645">
        <ele>516</ele>
        <time>2012-12-15T10:15:27.000Z</time>
      </trkpt>
      <trkpt lat="43.56522" lon="5.5651">
        <ele>521.20001220703</ele>
        <time>2012-12-15T10:15:52.000Z</time>
      </trkpt>
      <trkpt lat="43.56539" lon="5.5657">
        <ele>525</ele>
        <time>2012-12-15T10:16:14.000Z</time>
      </trkpt>
      <trkpt lat="43.56557" lon="5.56631">
        <ele>528.20001220703</ele>
        <time>2012-12-15T10:16:34.000Z</time>
      </trkpt>
      <trkpt lat="43.56571" lon="5.56694">
        <ele>532.20001220703</ele>
        <time>2012-12-15T10:16:53.000Z</time>
      </trkpt>
      <trkpt lat="43.56586" lon="5.56751">
        <ele>535.40002441406</ele>
        <time>2012-12-15T10:17:12.000Z</time>
      </trkpt>
      <trkpt lat="43.5661" lon="5.56803">
        <ele>536.79998779297</ele>
        <time>2012-12-15T10:17:32.000Z</time>
      </trkpt>
      <trkpt lat="43.56625" lon="5.56864">
        <ele>539.59997558594</ele>
        <time>2012-12-15T10:17:54.000Z</time>
      </trkpt>
      <trkpt lat="43.5663" lon="5.56929">
        <ele>545.79998779297</ele>
        <time>2012-12-15T10:18:19.000Z</time>
      </trkpt>
      <trkpt lat="43.56653" lon="5.56981">
        <ele>545.79998779297</ele>
        <time>2012-12-15T10:18:44.000Z</time>
      </trkpt>
      <trkpt lat="43.56657" lon="5.57043">
        <ele>548.20001220703</ele>
        <time>2012-12-15T10:19:10.000Z</time>
      </trkpt>
      <trkpt lat="43.56634" lon="5.57096">
        <ele>557.79998779297</ele>
        <time>2012-12-15T10:19:35.000Z</time>
      </trkpt>
      <trkpt lat="43.56655" lon="5.5715">
        <ele>556.40002441406</ele>
        <time>2012-12-15T10:19:58.000Z</time>
      </trkpt>
      <trkpt lat="43.56674" lon="5.57206">
        <ele>555.79998779297</ele>
        <time>2012-12-15T10:20:21.000Z</time>
      </trkpt>
      <trkpt lat="43.56652" lon="5.57259">
        <ele>563</ele>
        <time>2012-12-15T10:20:42.000Z</time>
      </trkpt>
      <trkpt lat="43.56614" lon="5.57295">
        <ele>569.20001220703</ele>
        <time>2012-12-15T10:21:04.000Z</time>
      </trkpt>
      <trkpt lat="43.56587" lon="5.57346">
        <ele>570.79998779297</ele>
        <time>2012-12-15T10:21:29.000Z</time>
      </trkpt>
      <trkpt lat="43.56547" lon="5.5738">
        <ele>574.79998779297</ele>
        <time>2012-12-15T10:21:50.000Z</time>
      </trkpt>
      <trkpt lat="43.56508" lon="5.57397">
        <ele>580.79998779297</ele>
        <time>2012-12-15T10:22:03.000Z</time>
      </trkpt>
      <trkpt lat="43.56489" lon="5.57459">
        <ele>574</ele>
        <time>2012-12-15T10:22:14.000Z</time>
      </trkpt>
      <trkpt lat="43.5648" lon="5.5752">
        <ele>568.20001220703</ele>
        <time>2012-12-15T10:22:27.000Z</time>
      </trkpt>
      <trkpt lat="43.56462" lon="5.57577">
        <ele>567.59997558594</ele>
        <time>2012-12-15T10:22:47.000Z</time>
      </trkpt>
      <trkpt lat="43.56454" lon="5.57631">
        <ele>574.20001220703</ele>
        <time>2012-12-15T10:23:15.000Z</time>
      </trkpt>
      <trkpt lat="43.56478" lon="5.57679">
        <ele>579.40002441406</ele>
        <time>2012-12-15T10:23:39.000Z</time>
      </trkpt>
      <trkpt lat="43.56485" lon="5.57732">
        <ele>581.79998779297</ele>
        <time>2012-12-15T10:23:58.000Z</time>
      </trkpt>
      <trkpt lat="43.56459" lon="5.57785">
        <ele>586.59997558594</ele>
        <time>2012-12-15T10:24:19.000Z</time>
      </trkpt>
      <trkpt lat="43.56431" lon="5.57836">
        <ele>592.20001220703</ele>
        <time>2012-12-15T10:24:44.000Z</time>
      </trkpt>
      <trkpt lat="43.56399" lon="5.57879">
        <ele>599.59997558594</ele>
        <time>2012-12-15T10:25:09.000Z</time>
      </trkpt>
      <trkpt lat="43.5638" lon="5.57935">
        <ele>603</ele>
        <time>2012-12-15T10:25:35.000Z</time>
      </trkpt>
      <trkpt lat="43.56368" lon="5.57994">
        <ele>606.20001220703</ele>
        <time>2012-12-15T10:26:00.000Z</time>
      </trkpt>
      <trkpt lat="43.56329" lon="5.58021">
        <ele>612.79998779297</ele>
        <time>2012-12-15T10:26:24.000Z</time>
      </trkpt>
      <trkpt lat="43.56307" lon="5.58076">
        <ele>614.79998779297</ele>
        <time>2012-12-15T10:29:09.000Z</time>
      </trkpt>
      <trkpt lat="43.56311" lon="5.58141">
        <ele>612.79998779297</ele>
        <time>2012-12-15T10:29:29.000Z</time>
      </trkpt>
      <trkpt lat="43.56321" lon="5.58204">
        <ele>610.59997558594</ele>
        <time>2012-12-15T10:29:45.000Z</time>
      </trkpt>
      <trkpt lat="43.56352" lon="5.58255">
        <ele>606.79998779297</ele>
        <time>2012-12-15T10:29:54.000Z</time>
      </trkpt>
      <trkpt lat="43.56379" lon="5.58313">
        <ele>604.20001220703</ele>
        <time>2012-12-15T10:30:03.000Z</time>
      </trkpt>
      <trkpt lat="43.56402" lon="5.58371">
        <ele>600.59997558594</ele>
        <time>2012-12-15T10:30:10.000Z</time>
      </trkpt>
      <trkpt lat="43.56435" lon="5.58424">
        <ele>594.79998779297</ele>
        <time>2012-12-15T10:30:16.000Z</time>
      </trkpt>
      <trkpt lat="43.56453" lon="5.58481">
        <ele>592.40002441406</ele>
        <time>2012-12-15T10:30:22.000Z</time>
      </trkpt>
      <trkpt lat="43.56476" lon="5.58539">
        <ele>592.20001220703</ele>
        <time>2012-12-15T10:30:29.000Z</time>
      </trkpt>
      <trkpt lat="43.56502" lon="5.58592">
        <ele>593</ele>
        <time>2012-12-15T10:30:37.000Z</time>
      </trkpt>
      <trkpt lat="43.56531" lon="5.58644">
        <ele>594.40002441406</ele>
        <time>2012-12-15T10:30:49.000Z</time>
      </trkpt>
      <trkpt lat="43.56558" lon="5.58697">
        <ele>595</ele>
        <time>2012-12-15T10:31:02.000Z</time>
      </trkpt>
      <trkpt lat="43.56584" lon="5.58747">
        <ele>594</ele>
        <time>2012-12-15T10:31:13.000Z</time>
      </trkpt>
      <trkpt lat="43.56607" lon="5.58802">
        <ele>593.59997558594</ele>
        <time>2012-12-15T10:31:23.000Z</time>
      </trkpt>
      <trkpt lat="43.56626" lon="5.5886">
        <ele>593.79998779297</ele>
        <time>2012-12-15T10:31:35.000Z</time>
      </trkpt>
      <trkpt lat="43.56648" lon="5.58915">
        <ele>594.79998779297</ele>
        <time>2012-12-15T10:31:48.000Z</time>
      </trkpt>
      <trkpt lat="43.56677" lon="5.58967">
        <ele>594.59997558594</ele>
        <time>2012-12-15T10:32:01.000Z</time>
      </trkpt>
      <trkpt lat="43.56701" lon="5.59022">
        <ele>593.59997558594</ele>
        <time>2012-12-15T10:32:18.000Z</time>
      </trkpt>
      <trkpt lat="43.56733" lon="5.59071">
        <ele>593.59997558594</ele>
        <time>2012-12-15T10:32:35.000Z</time>
      </trkpt>
      <trkpt lat="43.56766" lon="5.59114">
        <ele>594</ele>
        <time>2012-12-15T10:32:51.000Z</time>
      </trkpt>
      <trkpt lat="43.56799" lon="5.59161">
        <ele>594.59997558594</ele>
        <time>2012-12-15T10:33:05.000Z</time>
      </trkpt>
      <trkpt lat="43.56823" lon="5.59216">
        <ele>595.59997558594</ele>
        <time>2012-12-15T10:33:29.000Z</time>
      </trkpt>
      <trkpt lat="43.56848" lon="5.59266">
        <ele>595.20001220703</ele>
        <time>2012-12-15T10:34:55.000Z</time>
      </trkpt>
      <trkpt lat="43.56872" lon="5.59324">
        <ele>593.20001220703</ele>
        <time>2012-12-15T10:35:10.000Z</time>
      </trkpt>
      <trkpt lat="43.56905" lon="5.59367">
        <ele>592.20001220703</ele>
        <time>2012-12-15T10:35:20.000Z</time>
      </trkpt>
      <trkpt lat="43.56931" lon="5.59419">
        <ele>590.59997558594</ele>
        <time>2012-12-15T10:35:29.000Z</time>
      </trkpt>
      <trkpt lat="43.56962" lon="5.59465">
        <ele>588.79998779297</ele>
        <time>2012-12-15T10:35:37.000Z</time>
      </trkpt>
      <trkpt lat="43.5699" lon="5.59517">
        <ele>586.79998779297</ele>
        <time>2012-12-15T10:35:45.000Z</time>
      </trkpt>
      <trkpt lat="43.57018" lon="5.59573">
        <ele>585.20001220703</ele>
        <time>2012-12-15T10:35:54.000Z</time>
      </trkpt>
      <trkpt lat="43.57031" lon="5.59634">
        <ele>582.79998779297</ele>
        <time>2012-12-15T10:36:04.000Z</time>
      </trkpt>
      <trkpt lat="43.5705" lon="5.5969">
        <ele>581.20001220703</ele>
        <time>2012-12-15T10:36:14.000Z</time>
      </trkpt>
      <trkpt lat="43.57071" lon="5.59748">
        <ele>581</ele>
        <time>2012-12-15T10:36:24.000Z</time>
      </trkpt>
      <trkpt lat="43.57093" lon="5.5981">
        <ele>580.40002441406</ele>
        <time>2012-12-15T10:36:32.000Z</time>
      </trkpt>
      <trkpt lat="43.57112" lon="5.59867">
        <ele>580.20001220703</ele>
        <time>2012-12-15T10:36:41.000Z</time>
      </trkpt>
      <trkpt lat="43.57134" lon="5.59921">
        <ele>580</ele>
        <time>2012-12-15T10:36:53.000Z</time>
      </trkpt>
      <trkpt lat="43.57172" lon="5.59951">
        <ele>581.20001220703</ele>
        <time>2012-12-15T10:37:10.000Z</time>
      </trkpt>
      <trkpt lat="43.57218" lon="5.59963">
        <ele>583</ele>
        <time>2012-12-15T10:37:26.000Z</time>
      </trkpt>
      <trkpt lat="43.5725" lon="5.60006">
        <ele>582.79998779297</ele>
        <time>2012-12-15T10:37:42.000Z</time>
      </trkpt>
      <trkpt lat="43.57276" lon="5.60058">
        <ele>583.40002441406</ele>
        <time>2012-12-15T10:38:00.000Z</time>
      </trkpt>
      <trkpt lat="43.57295" lon="5.60113">
        <ele>585</ele>
        <time>2012-12-15T10:38:19.000Z</time>
      </trkpt>
      <trkpt lat="43.57306" lon="5.60174">
        <ele>587.20001220703</ele>
        <time>2012-12-15T10:38:34.000Z</time>
      </trkpt>
      <trkpt lat="43.57306" lon="5.6024">
        <ele>586.40002441406</ele>
        <time>2012-12-15T10:38:49.000Z</time>
      </trkpt>
      <trkpt lat="43.57312" lon="5.60302">
        <ele>585.20001220703</ele>
        <time>2012-12-15T10:39:10.000Z</time>
      </trkpt>
      <trkpt lat="43.57334" lon="5.60356">
        <ele>583.59997558594</ele>
        <time>2012-12-15T10:40:23.000Z</time>
      </trkpt>
      <trkpt lat="43.57358" lon="5.60411">
        <ele>582</ele>
        <time>2012-12-15T10:40:32.000Z</time>
      </trkpt>
      <trkpt lat="43.57369" lon="5.60479">
        <ele>580</ele>
        <time>2012-12-15T10:40:41.000Z</time>
      </trkpt>
      <trkpt lat="43.57382" lon="5.60544">
        <ele>580.20001220703</ele>
        <time>2012-12-15T10:40:54.000Z</time>
      </trkpt>
      <trkpt lat="43.57393" lon="5.60608">
        <ele>582.20001220703</ele>
        <time>2012-12-15T10:41:06.000Z</time>
      </trkpt>
      <trkpt lat="43.57409" lon="5.60667">
        <ele>585.40002441406</ele>
        <time>2012-12-15T10:41:18.000Z</time>
      </trkpt>
      <trkpt lat="43.57426" lon="5.60726">
        <ele>585.79998779297</ele>
        <time>2012-12-15T10:41:38.000Z</time>
      </trkpt>
      <trkpt lat="43.57435" lon="5.60787">
        <ele>585.59997558594</ele>
        <time>2012-12-15T10:41:54.000Z</time>
      </trkpt>
      <trkpt lat="43.57433" lon="5.60853">
        <ele>584.59997558594</ele>
        <time>2012-12-15T10:42:08.000Z</time>
      </trkpt>
      <trkpt lat="43.57427" lon="5.60915">
        <ele>584.59997558594</ele>
        <time>2012-12-15T10:42:23.000Z</time>
      </trkpt>
      <trkpt lat="43.57419" lon="5.60977">
        <ele>584</ele>
        <time>2012-12-15T10:42:36.000Z</time>
      </trkpt>
      <trkpt lat="43.57405" lon="5.61038">
        <ele>583</ele>
        <time>2012-12-15T10:42:47.000Z</time>
      </trkpt>
      <trkpt lat="43.57393" lon="5.61102">
        <ele>581.59997558594</ele>
        <time>2012-12-15T10:42:58.000Z</time>
      </trkpt>
      <trkpt lat="43.57379" lon="5.61168">
        <ele>581.20001220703</ele>
        <time>2012-12-15T10:43:08.000Z</time>
      </trkpt>
      <trkpt lat="43.57365" lon="5.61233">
        <ele>580.79998779297</ele>
        <time>2012-12-15T10:43:17.000Z</time>
      </trkpt>
      <trkpt lat="43.57354" lon="5.61296">
        <ele>579.20001220703</ele>
        <time>2012-12-15T10:43:25.000Z</time>
      </trkpt>
      <trkpt lat="43.57348" lon="5.6136">
        <ele>577.20001220703</ele>
        <time>2012-12-15T10:43:33.000Z</time>
      </trkpt>
      <trkpt lat="43.57341" lon="5.61421">
        <ele>576.40002441406</ele>
        <time>2012-12-15T10:43:40.000Z</time>
      </trkpt>
      <trkpt lat="43.57343" lon="5.61485">
        <ele>572.20001220703</ele>
        <time>2012-12-15T10:43:47.000Z</time>
      </trkpt>
      <trkpt lat="43.57348" lon="5.61554">
        <ele>567.20001220703</ele>
        <time>2012-12-15T10:43:54.000Z</time>
      </trkpt>
      <trkpt lat="43.57355" lon="5.61616">
        <ele>563</ele>
        <time>2012-12-15T10:44:01.000Z</time>
      </trkpt>
      <trkpt lat="43.57362" lon="5.61662">
        <ele>560</ele>
        <time>2012-12-15T10:45:19.000Z</time>
      </trkpt>
      <trkpt lat="43.57406" lon="5.6165">
        <ele>558.59997558594</ele>
        <time>2012-12-15T10:46:00.000Z</time>
      </trkpt>
      <trkpt lat="43.57444" lon="5.61678">
        <ele>562</ele>
        <time>2012-12-15T10:46:14.000Z</time>
      </trkpt>
      <trkpt lat="43.57455" lon="5.61742">
        <ele>564.40002441406</ele>
        <time>2012-12-15T10:46:30.000Z</time>
      </trkpt>
      <trkpt lat="43.57473" lon="5.61804">
        <ele>566</ele>
        <time>2012-12-15T10:46:42.000Z</time>
      </trkpt>
      <trkpt lat="43.57491" lon="5.61863">
        <ele>568.40002441406</ele>
        <time>2012-12-15T10:46:54.000Z</time>
      </trkpt>
      <trkpt lat="43.57501" lon="5.61926">
        <ele>571.79998779297</ele>
        <time>2012-12-15T10:47:07.000Z</time>
      </trkpt>
      <trkpt lat="43.57502" lon="5.61991">
        <ele>575.79998779297</ele>
        <time>2012-12-15T10:47:22.000Z</time>
      </trkpt>
      <trkpt lat="43.57498" lon="5.62053">
        <ele>577.59997558594</ele>
        <time>2012-12-15T10:47:37.000Z</time>
      </trkpt>
      <trkpt lat="43.57495" lon="5.62116">
        <ele>579.59997558594</ele>
        <time>2012-12-15T10:47:53.000Z</time>
      </trkpt>
      <trkpt lat="43.57511" lon="5.62176">
        <ele>583.79998779297</ele>
        <time>2012-12-15T10:48:10.000Z</time>
      </trkpt>
      <trkpt lat="43.57551" lon="5.62207">
        <ele>587</ele>
        <time>2012-12-15T10:48:31.000Z</time>
      </trkpt>
      <trkpt lat="43.57594" lon="5.62178">
        <ele>593.20001220703</ele>
        <time>2012-12-15T10:48:51.000Z</time>
      </trkpt>
      <trkpt lat="43.57624" lon="5.62127">
        <ele>597.79998779297</ele>
        <time>2012-12-15T10:49:08.000Z</time>
      </trkpt>
      <trkpt lat="43.57653" lon="5.62078">
        <ele>600.40002441406</ele>
        <time>2012-12-15T10:49:23.000Z</time>
      </trkpt>
      <trkpt lat="43.5768" lon="5.62029">
        <ele>602</ele>
        <time>2012-12-15T10:49:36.000Z</time>
      </trkpt>
      <trkpt lat="43.5771" lon="5.61981">
        <ele>602.59997558594</ele>
        <time>2012-12-15T10:49:49.000Z</time>
      </trkpt>
      <trkpt lat="43.57752" lon="5.61955">
        <ele>604.59997558594</ele>
        <time>2012-12-15T10:49:59.000Z</time>
      </trkpt>
      <trkpt lat="43.578" lon="5.61948">
        <ele>609.79998779297</ele>
        <time>2012-12-15T10:50:10.000Z</time>
      </trkpt>
      <trkpt lat="43.57848" lon="5.61954">
        <ele>613.20001220703</ele>
        <time>2012-12-15T10:50:20.000Z</time>
      </trkpt>
      <trkpt lat="43.57891" lon="5.61971">
        <ele>613.59997558594</ele>
        <time>2012-12-15T10:50:29.000Z</time>
      </trkpt>
      <trkpt lat="43.57912" lon="5.62022">
        <ele>615</ele>
        <time>2012-12-15T10:53:21.000Z</time>
      </trkpt>
      <trkpt lat="43.5793" lon="5.6207">
        <ele>615.59997558594</ele>
        <time>2012-12-15T10:53:32.000Z</time>
      </trkpt>
      <trkpt lat="43.57933" lon="5.61998">
        <ele>609.79998779297</ele>
        <time>2012-12-15T10:53:39.000Z</time>
      </trkpt>
      <trkpt lat="43.57956" lon="5.61931">
        <ele>603.59997558594</ele>
        <time>2012-12-15T10:53:45.000Z</time>
      </trkpt>
      <trkpt lat="43.57979" lon="5.61877">
        <ele>604.40002441406</ele>
        <time>2012-12-15T10:53:51.000Z</time>
      </trkpt>
      <trkpt lat="43.57984" lon="5.61936">
        <ele>596.20001220703</ele>
        <time>2012-12-15T10:53:59.000Z</time>
      </trkpt>
      <trkpt lat="43.57976" lon="5.62005">
        <ele>599.40002441406</ele>
        <time>2012-12-15T10:54:05.000Z</time>
      </trkpt>
      <trkpt lat="43.58007" lon="5.62046">
        <ele>598</ele>
        <time>2012-12-15T10:54:11.000Z</time>
      </trkpt>
      <trkpt lat="43.58059" lon="5.62044">
        <ele>586.59997558594</ele>
        <time>2012-12-15T10:54:16.000Z</time>
      </trkpt>
      <trkpt lat="43.58111" lon="5.62075">
        <ele>580.79998779297</ele>
        <time>2012-12-15T10:54:21.000Z</time>
      </trkpt>
      <trkpt lat="43.58153" lon="5.62108">
        <ele>575.40002441406</ele>
        <time>2012-12-15T10:54:25.000Z</time>
      </trkpt>
      <trkpt lat="43.58197" lon="5.62144">
        <ele>570.79998779297</ele>
        <time>2012-12-15T10:54:29.000Z</time>
      </trkpt>
      <trkpt lat="43.58218" lon="5.62208">
        <ele>567.40002441406</ele>
        <time>2012-12-15T10:54:33.000Z</time>
      </trkpt>
      <trkpt lat="43.58224" lon="5.62277">
        <ele>563.20001220703</ele>
        <time>2012-12-15T10:54:37.000Z</time>
      </trkpt>
      <trkpt lat="43.58221" lon="5.62346">
        <ele>560.40002441406</ele>
        <time>2012-12-15T10:54:41.000Z</time>
      </trkpt>
      <trkpt lat="43.58234" lon="5.62414">
        <ele>553</ele>
        <time>2012-12-15T10:54:45.000Z</time>
      </trkpt>
      <trkpt lat="43.58251" lon="5.62483">
        <ele>548.79998779297</ele>
        <time>2012-12-15T10:54:49.000Z</time>
      </trkpt>
      <trkpt lat="43.58267" lon="5.62553">
        <ele>548.20001220703</ele>
        <time>2012-12-15T10:54:53.000Z</time>
      </trkpt>
      <trkpt lat="43.58283" lon="5.62619">
        <ele>546.40002441406</ele>
        <time>2012-12-15T10:54:57.000Z</time>
      </trkpt>
      <trkpt lat="43.58299" lon="5.62678">
        <ele>541.59997558594</ele>
        <time>2012-12-15T10:55:01.000Z</time>
      </trkpt>
      <trkpt lat="43.58277" lon="5.62746">
        <ele>538</ele>
        <time>2012-12-15T10:55:06.000Z</time>
      </trkpt>
      <trkpt lat="43.58268" lon="5.62807">
        <ele>534.20001220703</ele>
        <time>2012-12-15T10:55:10.000Z</time>
      </trkpt>
      <trkpt lat="43.5827" lon="5.62871">
        <ele>530.40002441406</ele>
        <time>2012-12-15T10:55:14.000Z</time>
      </trkpt>
      <trkpt lat="43.58287" lon="5.62944">
        <ele>524.20001220703</ele>
        <time>2012-12-15T10:55:19.000Z</time>
      </trkpt>
      <trkpt lat="43.58285" lon="5.63007">
        <ele>523.40002441406</ele>
        <time>2012-12-15T10:55:23.000Z</time>
      </trkpt>
      <trkpt lat="43.58303" lon="5.63078">
        <ele>518</ele>
        <time>2012-12-15T10:55:28.000Z</time>
      </trkpt>
      <trkpt lat="43.58311" lon="5.63142">
        <ele>512.40002441406</ele>
        <time>2012-12-15T10:55:32.000Z</time>
      </trkpt>
      <trkpt lat="43.58311" lon="5.63208">
        <ele>510</ele>
        <time>2012-12-15T10:55:36.000Z</time>
      </trkpt>
      <trkpt lat="43.58323" lon="5.6327">
        <ele>504.60000610352</ele>
        <time>2012-12-15T10:55:40.000Z</time>
      </trkpt>
      <trkpt lat="43.58343" lon="5.63329">
        <ele>499.39999389648</ele>
        <time>2012-12-15T10:55:44.000Z</time>
      </trkpt>
      <trkpt lat="43.58338" lon="5.63403">
        <ele>499.79998779297</ele>
        <time>2012-12-15T10:55:49.000Z</time>
      </trkpt>
      <trkpt lat="43.58336" lon="5.63465">
        <ele>500.20001220703</ele>
        <time>2012-12-15T10:55:54.000Z</time>
      </trkpt>
      <trkpt lat="43.58367" lon="5.63515">
        <ele>492.60000610352</ele>
        <time>2012-12-15T10:55:59.000Z</time>
      </trkpt>
      <trkpt lat="43.58386" lon="5.6358">
        <ele>490.39999389648</ele>
        <time>2012-12-15T10:56:04.000Z</time>
      </trkpt>
      <trkpt lat="43.58395" lon="5.63655">
        <ele>486.79998779297</ele>
        <time>2012-12-15T10:56:09.000Z</time>
      </trkpt>
      <trkpt lat="43.58394" lon="5.63732">
        <ele>482.79998779297</ele>
        <time>2012-12-15T10:56:14.000Z</time>
      </trkpt>
      <trkpt lat="43.58387" lon="5.63792">
        <ele>482.20001220703</ele>
        <time>2012-12-15T10:56:18.000Z</time>
      </trkpt>
      <trkpt lat="43.58383" lon="5.63853">
        <ele>480</ele>
        <time>2012-12-15T10:56:23.000Z</time>
      </trkpt>
      <trkpt lat="43.58406" lon="5.63805">
        <ele>476.60000610352</ele>
        <time>2012-12-15T10:56:30.000Z</time>
      </trkpt>
      <trkpt lat="43.58425" lon="5.63743">
        <ele>475</ele>
        <time>2012-12-15T10:56:35.000Z</time>
      </trkpt>
      <trkpt lat="43.58448" lon="5.63686">
        <ele>474.20001220703</ele>
        <time>2012-12-15T10:56:40.000Z</time>
      </trkpt>
      <trkpt lat="43.58487" lon="5.63705">
        <ele>466.39999389648</ele>
        <time>2012-12-15T10:56:45.000Z</time>
      </trkpt>
      <trkpt lat="43.58498" lon="5.63778">
        <ele>460.60000610352</ele>
        <time>2012-12-15T10:56:50.000Z</time>
      </trkpt>
      <trkpt lat="43.58477" lon="5.63844">
        <ele>460.79998779297</ele>
        <time>2012-12-15T10:56:55.000Z</time>
      </trkpt>
      <trkpt lat="43.58487" lon="5.63914">
        <ele>456.20001220703</ele>
        <time>2012-12-15T10:57:00.000Z</time>
      </trkpt>
      <trkpt lat="43.58502" lon="5.63984">
        <ele>452.20001220703</ele>
        <time>2012-12-15T10:57:05.000Z</time>
      </trkpt>
      <trkpt lat="43.58536" lon="5.64042">
        <ele>450.20001220703</ele>
        <time>2012-12-15T10:57:10.000Z</time>
      </trkpt>
      <trkpt lat="43.58568" lon="5.64089">
        <ele>447.60000610352</ele>
        <time>2012-12-15T10:57:16.000Z</time>
      </trkpt>
      <trkpt lat="43.58594" lon="5.64143">
        <ele>443.20001220703</ele>
        <time>2012-12-15T10:57:27.000Z</time>
      </trkpt>
      <trkpt lat="43.58627" lon="5.64186">
        <ele>438.20001220703</ele>
        <time>2012-12-15T10:58:18.000Z</time>
      </trkpt>
      <trkpt lat="43.58643" lon="5.64246">
        <ele>434.60000610352</ele>
        <time>2012-12-15T10:58:29.000Z</time>
      </trkpt>
      <trkpt lat="43.58657" lon="5.64304">
        <ele>433.20001220703</ele>
        <time>2012-12-15T10:58:37.000Z</time>
      </trkpt>
      <trkpt lat="43.58689" lon="5.64352">
        <ele>429.79998779297</ele>
        <time>2012-12-15T10:58:44.000Z</time>
      </trkpt>
      <trkpt lat="43.58732" lon="5.64385">
        <ele>425.39999389648</ele>
        <time>2012-12-15T10:58:50.000Z</time>
      </trkpt>
      <trkpt lat="43.58773" lon="5.64412">
        <ele>422.39999389648</ele>
        <time>2012-12-15T10:58:56.000Z</time>
      </trkpt>
      <trkpt lat="43.58819" lon="5.64424">
        <ele>418.39999389648</ele>
        <time>2012-12-15T10:59:03.000Z</time>
      </trkpt>
      <trkpt lat="43.5887" lon="5.64427">
        <ele>415</ele>
        <time>2012-12-15T10:59:11.000Z</time>
      </trkpt>
      <trkpt lat="43.58912" lon="5.6445">
        <ele>411.20001220703</ele>
        <time>2012-12-15T10:59:19.000Z</time>
      </trkpt>
      <trkpt lat="43.58963" lon="5.64466">
        <ele>405</ele>
        <time>2012-12-15T10:59:28.000Z</time>
      </trkpt>
      <trkpt lat="43.58996" lon="5.64438">
        <ele>402.60000610352</ele>
        <time>2012-12-15T10:59:42.000Z</time>
      </trkpt>
      <trkpt lat="43.59021" lon="5.64395">
        <ele>401.60000610352</ele>
        <time>2012-12-15T10:59:57.000Z</time>
      </trkpt>
      <trkpt lat="43.59037" lon="5.64337">
        <ele>402</ele>
        <time>2012-12-15T11:00:09.000Z</time>
      </trkpt>
      <trkpt lat="43.59071" lon="5.64293">
        <ele>403</ele>
        <time>2012-12-15T11:00:21.000Z</time>
      </trkpt>
      <trkpt lat="43.59081" lon="5.6436">
        <ele>399.79998779297</ele>
        <time>2012-12-15T11:01:01.000Z</time>
      </trkpt>
      <trkpt lat="43.59112" lon="5.64406">
        <ele>398.39999389648</ele>
        <time>2012-12-15T11:01:10.000Z</time>
      </trkpt>
      <trkpt lat="43.5916" lon="5.64427">
        <ele>398.20001220703</ele>
        <time>2012-12-15T11:01:19.000Z</time>
      </trkpt>
      <trkpt lat="43.5918" lon="5.64466">
        <ele>396.60000610352</ele>
        <time>2012-12-15T11:01:28.000Z</time>
      </trkpt>
      <trkpt lat="43.59186" lon="5.64518">
        <ele>393.60000610352</ele>
        <time>2012-12-15T11:01:37.000Z</time>
      </trkpt>
      <trkpt lat="43.59232" lon="5.64521">
        <ele>393.79998779297</ele>
        <time>2012-12-15T11:01:45.000Z</time>
      </trkpt>
      <trkpt lat="43.5928" lon="5.64519">
        <ele>393.79998779297</ele>
        <time>2012-12-15T11:01:53.000Z</time>
      </trkpt>
      <trkpt lat="43.59312" lon="5.64567">
        <ele>391.60000610352</ele>
        <time>2012-12-15T11:02:01.000Z</time>
      </trkpt>
      <trkpt lat="43.5935" lon="5.64592">
        <ele>389.60000610352</ele>
        <time>2012-12-15T11:02:09.000Z</time>
      </trkpt>
      <trkpt lat="43.59396" lon="5.64574">
        <ele>388.20001220703</ele>
        <time>2012-12-15T11:02:16.000Z</time>
      </trkpt>
      <trkpt lat="43.59445" lon="5.64552">
        <ele>386.20001220703</ele>
        <time>2012-12-15T11:02:23.000Z</time>
      </trkpt>
      <trkpt lat="43.59492" lon="5.64531">
        <ele>384</ele>
        <time>2012-12-15T11:02:29.000Z</time>
      </trkpt>
      <trkpt lat="43.59534" lon="5.64509">
        <ele>383</ele>
        <time>2012-12-15T11:02:35.000Z</time>
      </trkpt>
      <trkpt lat="43.59579" lon="5.64482">
        <ele>383.39999389648</ele>
        <time>2012-12-15T11:02:42.000Z</time>
      </trkpt>
      <trkpt lat="43.59626" lon="5.6448">
        <ele>382.60000610352</ele>
        <time>2012-12-15T11:02:49.000Z</time>
      </trkpt>
      <trkpt lat="43.59669" lon="5.64515">
        <ele>381</ele>
        <time>2012-12-15T11:02:56.000Z</time>
      </trkpt>
      <trkpt lat="43.59715" lon="5.64534">
        <ele>380.60000610352</ele>
        <time>2012-12-15T11:03:03.000Z</time>
      </trkpt>
      <trkpt lat="43.59761" lon="5.64525">
        <ele>380.39999389648</ele>
        <time>2012-12-15T11:03:10.000Z</time>
      </trkpt>
      <trkpt lat="43.59807" lon="5.64515">
        <ele>382.79998779297</ele>
        <time>2012-12-15T11:03:18.000Z</time>
      </trkpt>
      <trkpt lat="43.59852" lon="5.64504">
        <ele>385.39999389648</ele>
        <time>2012-12-15T11:03:25.000Z</time>
      </trkpt>
      <trkpt lat="43.59886" lon="5.64532">
        <ele>389.39999389648</ele>
        <time>2012-12-15T11:03:34.000Z</time>
      </trkpt>
      <trkpt lat="43.59866" lon="5.64587">
        <ele>390.20001220703</ele>
        <time>2012-12-15T11:03:55.000Z</time>
      </trkpt>
      <trkpt lat="43.59874" lon="5.64606">
        <ele>391.39999389648</ele>
        <time>2012-12-15T11:04:14.000Z</time>
      </trkpt>
      <trkpt lat="43.59896" lon="5.64584">
        <ele>393</ele>
        <time>2012-12-15T11:04:45.000Z</time>
      </trkpt>
      <trkpt lat="43.59933" lon="5.64541">
        <ele>392.60000610352</ele>
        <time>2012-12-15T11:05:03.000Z</time>
      </trkpt>
      <trkpt lat="43.5997" lon="5.64503">
        <ele>392</ele>
        <time>2012-12-15T11:05:16.000Z</time>
      </trkpt>
      <trkpt lat="43.60003" lon="5.64458">
        <ele>389.39999389648</ele>
        <time>2012-12-15T11:05:29.000Z</time>
      </trkpt>
      <trkpt lat="43.60042" lon="5.6442">
        <ele>388.60000610352</ele>
        <time>2012-12-15T11:05:44.000Z</time>
      </trkpt>
      <trkpt lat="43.60074" lon="5.64374">
        <ele>386.60000610352</ele>
        <time>2012-12-15T11:05:56.000Z</time>
      </trkpt>
      <trkpt lat="43.60112" lon="5.64331">
        <ele>385.79998779297</ele>
        <time>2012-12-15T11:06:09.000Z</time>
      </trkpt>
      <trkpt lat="43.60148" lon="5.64286">
        <ele>383.60000610352</ele>
        <time>2012-12-15T11:06:22.000Z</time>
      </trkpt>
      <trkpt lat="43.60183" lon="5.64245">
        <ele>382.39999389648</ele>
        <time>2012-12-15T11:06:38.000Z</time>
      </trkpt>
      <trkpt lat="43.60215" lon="5.64196">
        <ele>382.60000610352</ele>
        <time>2012-12-15T11:06:58.000Z</time>
      </trkpt>
      <trkpt lat="43.60249" lon="5.64149">
        <ele>382.60000610352</ele>
        <time>2012-12-15T11:07:16.000Z</time>
      </trkpt>
      <trkpt lat="43.60283" lon="5.641">
        <ele>378.39999389648</ele>
        <time>2012-12-15T11:07:35.000Z</time>
      </trkpt>
      <trkpt lat="43.60318" lon="5.64048">
        <ele>373.39999389648</ele>
        <time>2012-12-15T11:07:57.000Z</time>
      </trkpt>
      <trkpt lat="43.60358" lon="5.64006">
        <ele>369.79998779297</ele>
        <time>2012-12-15T11:08:14.000Z</time>
      </trkpt>
      <trkpt lat="43.60405" lon="5.63979">
        <ele>369.79998779297</ele>
        <time>2012-12-15T11:08:28.000Z</time>
      </trkpt>
      <trkpt lat="43.60449" lon="5.63951">
        <ele>367.39999389648</ele>
        <time>2012-12-15T11:08:44.000Z</time>
      </trkpt>
      <trkpt lat="43.60486" lon="5.6391">
        <ele>362.60000610352</ele>
        <time>2012-12-15T11:08:57.000Z</time>
      </trkpt>
      <trkpt lat="43.60523" lon="5.63873">
        <ele>359.39999389648</ele>
        <time>2012-12-15T11:09:10.000Z</time>
      </trkpt>
      <trkpt lat="43.60573" lon="5.63878">
        <ele>362</ele>
        <time>2012-12-15T11:09:27.000Z</time>
      </trkpt>
      <trkpt lat="43.60602" lon="5.63827">
        <ele>356.79998779297</ele>
        <time>2012-12-15T11:09:42.000Z</time>
      </trkpt>
      <trkpt lat="43.60645" lon="5.63792">
        <ele>356.79998779297</ele>
        <time>2012-12-15T11:09:52.000Z</time>
      </trkpt>
      <trkpt lat="43.6069" lon="5.6377">
        <ele>354.20001220703</ele>
        <time>2012-12-15T11:10:04.000Z</time>
      </trkpt>
      <trkpt lat="43.60738" lon="5.63765">
        <ele>353</ele>
        <time>2012-12-15T11:10:17.000Z</time>
      </trkpt>
      <trkpt lat="43.60788" lon="5.63765">
        <ele>350</ele>
        <time>2012-12-15T11:10:37.000Z</time>
      </trkpt>
      <trkpt lat="43.60837" lon="5.63765">
        <ele>345.79998779297</ele>
        <time>2012-12-15T11:10:55.000Z</time>
      </trkpt>
      <trkpt lat="43.60859" lon="5.63815">
        <ele>348.20001220703</ele>
        <time>2012-12-15T11:11:09.000Z</time>
      </trkpt>
      <trkpt lat="43.60881" lon="5.63868">
        <ele>350.20001220703</ele>
        <time>2012-12-15T11:11:30.000Z</time>
      </trkpt>
      <trkpt lat="43.60919" lon="5.63883">
        <ele>347.60000610352</ele>
        <time>2012-12-15T11:12:46.000Z</time>
      </trkpt>
      <trkpt lat="43.6096" lon="5.63927">
        <ele>346.20001220703</ele>
        <time>2012-12-15T11:13:04.000Z</time>
      </trkpt>
      <trkpt lat="43.61004" lon="5.63956">
        <ele>342.79998779297</ele>
        <time>2012-12-15T11:13:13.000Z</time>
      </trkpt>
      <trkpt lat="43.61045" lon="5.63986">
        <ele>341.60000610352</ele>
        <time>2012-12-15T11:13:21.000Z</time>
      </trkpt>
      <trkpt lat="43.61091" lon="5.63998">
        <ele>340.60000610352</ele>
        <time>2012-12-15T11:13:30.000Z</time>
      </trkpt>
      <trkpt lat="43.61137" lon="5.64003">
        <ele>339.39999389648</ele>
        <time>2012-12-15T11:13:40.000Z</time>
      </trkpt>
      <trkpt lat="43.61182" lon="5.64024">
        <ele>336.79998779297</ele>
        <time>2012-12-15T11:13:49.000Z</time>
      </trkpt>
      <trkpt lat="43.61233" lon="5.64017">
        <ele>336</ele>
        <time>2012-12-15T11:13:58.000Z</time>
      </trkpt>
      <trkpt lat="43.6127" lon="5.64002">
        <ele>335.60000610352</ele>
        <time>2012-12-15T11:14:21.000Z</time>
      </trkpt>
      <trkpt lat="43.61286" lon="5.63936">
        <ele>334.79998779297</ele>
        <time>2012-12-15T11:15:30.000Z</time>
      </trkpt>
      <trkpt lat="43.61279" lon="5.63879">
        <ele>332.60000610352</ele>
        <time>2012-12-15T11:15:43.000Z</time>
      </trkpt>
      <trkpt lat="43.61269" lon="5.63816">
        <ele>329</ele>
        <time>2012-12-15T11:15:54.000Z</time>
      </trkpt>
      <trkpt lat="43.6128" lon="5.63763">
        <ele>325.60000610352</ele>
        <time>2012-12-15T11:16:07.000Z</time>
      </trkpt>
      <trkpt lat="43.61319" lon="5.63726">
        <ele>323.39999389648</ele>
        <time>2012-12-15T11:16:19.000Z</time>
      </trkpt>
      <trkpt lat="43.61358" lon="5.63694">
        <ele>321.79998779297</ele>
        <time>2012-12-15T11:16:29.000Z</time>
      </trkpt>
      <trkpt lat="43.61402" lon="5.63705">
        <ele>324.39999389648</ele>
        <time>2012-12-15T11:16:40.000Z</time>
      </trkpt>
      <trkpt lat="43.61438" lon="5.63666">
        <ele>319.79998779297</ele>
        <time>2012-12-15T11:16:53.000Z</time>
      </trkpt>
      <trkpt lat="43.61465" lon="5.63618">
        <ele>316</ele>
        <time>2012-12-15T11:17:08.000Z</time>
      </trkpt>
      <trkpt lat="43.61513" lon="5.63633">
        <ele>314.20001220703</ele>
        <time>2012-12-15T11:17:21.000Z</time>
      </trkpt>
      <trkpt lat="43.61553" lon="5.63663">
        <ele>311.60000610352</ele>
        <time>2012-12-15T11:17:32.000Z</time>
      </trkpt>
      <trkpt lat="43.61601" lon="5.63667">
        <ele>308</ele>
        <time>2012-12-15T11:17:41.000Z</time>
      </trkpt>
      <trkpt lat="43.61652" lon="5.63661">
        <ele>305.20001220703</ele>
        <time>2012-12-15T11:17:51.000Z</time>
      </trkpt>
      <trkpt lat="43.61702" lon="5.63658">
        <ele>306.20001220703</ele>
        <time>2012-12-15T11:17:59.000Z</time>
      </trkpt>
      <trkpt lat="43.61747" lon="5.63648">
        <ele>308.79998779297</ele>
        <time>2012-12-15T11:18:07.000Z</time>
      </trkpt>
      <trkpt lat="43.61786" lon="5.63622">
        <ele>308.60000610352</ele>
        <time>2012-12-15T11:18:19.000Z</time>
      </trkpt>
      <trkpt lat="43.61832" lon="5.63617">
        <ele>308.39999389648</ele>
        <time>2012-12-15T11:18:29.000Z</time>
      </trkpt>
      <trkpt lat="43.61878" lon="5.63622">
        <ele>307.20001220703</ele>
        <time>2012-12-15T11:18:42.000Z</time>
      </trkpt>
      <trkpt lat="43.61925" lon="5.63633">
        <ele>306.39999389648</ele>
        <time>2012-12-15T11:19:32.000Z</time>
      </trkpt>
      <trkpt lat="43.61974" lon="5.63633">
        <ele>305.39999389648</ele>
        <time>2012-12-15T11:19:44.000Z</time>
      </trkpt>
      <trkpt lat="43.62022" lon="5.63648">
        <ele>306.20001220703</ele>
        <time>2012-12-15T11:19:55.000Z</time>
      </trkpt>
      <trkpt lat="43.62072" lon="5.63656">
        <ele>307.20001220703</ele>
        <time>2012-12-15T11:20:06.000Z</time>
      </trkpt>
      <trkpt lat="43.6212" lon="5.63661">
        <ele>307.60000610352</ele>
        <time>2012-12-15T11:20:18.000Z</time>
      </trkpt>
      <trkpt lat="43.62169" lon="5.63667">
        <ele>308</ele>
        <time>2012-12-15T11:20:30.000Z</time>
      </trkpt>
      <trkpt lat="43.62215" lon="5.63673">
        <ele>308.60000610352</ele>
        <time>2012-12-15T11:20:41.000Z</time>
      </trkpt>
      <trkpt lat="43.62262" lon="5.63682">
        <ele>309.20001220703</ele>
        <time>2012-12-15T11:20:53.000Z</time>
      </trkpt>
      <trkpt lat="43.62306" lon="5.63707">
        <ele>308.60000610352</ele>
        <time>2012-12-15T11:21:02.000Z</time>
      </trkpt>
      <trkpt lat="43.62354" lon="5.63719">
        <ele>306.20001220703</ele>
        <time>2012-12-15T11:21:13.000Z</time>
      </trkpt>
      <trkpt lat="43.62404" lon="5.63721">
        <ele>302.79998779297</ele>
        <time>2012-12-15T11:21:25.000Z</time>
      </trkpt>
      <trkpt lat="43.62446" lon="5.6369">
        <ele>300</ele>
        <time>2012-12-15T11:21:34.000Z</time>
      </trkpt>
      <trkpt lat="43.62484" lon="5.63649">
        <ele>296.79998779297</ele>
        <time>2012-12-15T11:21:44.000Z</time>
      </trkpt>
      <trkpt lat="43.62531" lon="5.63631">
        <ele>293.79998779297</ele>
        <time>2012-12-15T11:21:55.000Z</time>
      </trkpt>
      <trkpt lat="43.62574" lon="5.63601">
        <ele>293.20001220703</ele>
        <time>2012-12-15T11:22:06.000Z</time>
      </trkpt>
      <trkpt lat="43.62612" lon="5.63563">
        <ele>294</ele>
        <time>2012-12-15T11:22:16.000Z</time>
      </trkpt>
      <trkpt lat="43.62644" lon="5.63566">
        <ele>293.20001220703</ele>
        <time>2012-12-15T11:22:36.000Z</time>
      </trkpt>
      <trkpt lat="43.62678" lon="5.63583">
        <ele>292.39999389648</ele>
        <time>2012-12-15T11:22:52.000Z</time>
      </trkpt>
      <trkpt lat="43.62715" lon="5.63548">
        <ele>292</ele>
        <time>2012-12-15T11:23:05.000Z</time>
      </trkpt>
      <trkpt lat="43.62751" lon="5.63507">
        <ele>293.39999389648</ele>
        <time>2012-12-15T11:23:16.000Z</time>
      </trkpt>
      <trkpt lat="43.62778" lon="5.63457">
        <ele>289.60000610352</ele>
        <time>2012-12-15T11:23:27.000Z</time>
      </trkpt>
      <trkpt lat="43.62808" lon="5.63408">
        <ele>288.39999389648</ele>
        <time>2012-12-15T11:23:37.000Z</time>
      </trkpt>
      <trkpt lat="43.62842" lon="5.63363">
        <ele>288</ele>
        <time>2012-12-15T11:23:46.000Z</time>
      </trkpt>
      <trkpt lat="43.62859" lon="5.63303">
        <ele>285.79998779297</ele>
        <time>2012-12-15T11:23:56.000Z</time>
      </trkpt>
      <trkpt lat="43.62883" lon="5.63251">
        <ele>284.60000610352</ele>
        <time>2012-12-15T11:24:05.000Z</time>
      </trkpt>
      <trkpt lat="43.62897" lon="5.6319">
        <ele>281.20001220703</ele>
        <time>2012-12-15T11:24:15.000Z</time>
      </trkpt>
      <trkpt lat="43.62895" lon="5.63124">
        <ele>276.79998779297</ele>
        <time>2012-12-15T11:24:24.000Z</time>
      </trkpt>
      <trkpt lat="43.62917" lon="5.63071">
        <ele>274.60000610352</ele>
        <time>2012-12-15T11:24:32.000Z</time>
      </trkpt>
      <trkpt lat="43.62963" lon="5.63077">
        <ele>275.20001220703</ele>
        <time>2012-12-15T11:24:40.000Z</time>
      </trkpt>
      <trkpt lat="43.63008" lon="5.6307">
        <ele>275.60000610352</ele>
        <time>2012-12-15T11:24:49.000Z</time>
      </trkpt>
      <trkpt lat="43.63039" lon="5.63025">
        <ele>275.79998779297</ele>
        <time>2012-12-15T11:24:58.000Z</time>
      </trkpt>
      <trkpt lat="43.63062" lon="5.62969">
        <ele>274.20001220703</ele>
        <time>2012-12-15T11:25:07.000Z</time>
      </trkpt>
      <trkpt lat="43.63071" lon="5.62908">
        <ele>270.20001220703</ele>
        <time>2012-12-15T11:25:23.000Z</time>
      </trkpt>
      <trkpt lat="43.63112" lon="5.62932">
        <ele>270.79998779297</ele>
        <time>2012-12-15T11:28:15.000Z</time>
      </trkpt>
      <trkpt lat="43.63161" lon="5.62946">
        <ele>266.60000610352</ele>
        <time>2012-12-15T11:28:23.000Z</time>
      </trkpt>
      <trkpt lat="43.63208" lon="5.62968">
        <ele>262.39999389648</ele>
        <time>2012-12-15T11:28:29.000Z</time>
      </trkpt>
      <trkpt lat="43.63253" lon="5.62998">
        <ele>259</ele>
        <time>2012-12-15T11:28:36.000Z</time>
      </trkpt>
      <trkpt lat="43.63292" lon="5.63029">
        <ele>260.20001220703</ele>
        <time>2012-12-15T11:28:46.000Z</time>
      </trkpt>
      <trkpt lat="43.6333" lon="5.63072">
        <ele>263.20001220703</ele>
        <time>2012-12-15T11:28:53.000Z</time>
      </trkpt>
      <trkpt lat="43.6337" lon="5.6311">
        <ele>263</ele>
        <time>2012-12-15T11:29:01.000Z</time>
      </trkpt>
      <trkpt lat="43.63404" lon="5.63164">
        <ele>262</ele>
        <time>2012-12-15T11:29:10.000Z</time>
      </trkpt>
      <trkpt lat="43.63445" lon="5.63192">
        <ele>261.39999389648</ele>
        <time>2012-12-15T11:29:16.000Z</time>
      </trkpt>
      <trkpt lat="43.63493" lon="5.6318">
        <ele>256.79998779297</ele>
        <time>2012-12-15T11:29:22.000Z</time>
      </trkpt>
      <trkpt lat="43.63541" lon="5.63181">
        <ele>258</ele>
        <time>2012-12-15T11:29:29.000Z</time>
      </trkpt>
      <trkpt lat="43.63588" lon="5.63196">
        <ele>259.79998779297</ele>
        <time>2012-12-15T11:29:37.000Z</time>
      </trkpt>
      <trkpt lat="43.63627" lon="5.63229">
        <ele>260.20001220703</ele>
        <time>2012-12-15T11:29:44.000Z</time>
      </trkpt>
      <trkpt lat="43.63667" lon="5.63267">
        <ele>261</ele>
        <time>2012-12-15T11:29:51.000Z</time>
      </trkpt>
      <trkpt lat="43.63695" lon="5.63315">
        <ele>259.39999389648</ele>
        <time>2012-12-15T11:30:01.000Z</time>
      </trkpt>
      <trkpt lat="43.63681" lon="5.63348">
        <ele>261</ele>
        <time>2012-12-15T11:30:33.000Z</time>
      </trkpt>
      <trkpt lat="43.6366" lon="5.63407">
        <ele>262.39999389648</ele>
        <time>2012-12-15T11:30:40.000Z</time>
      </trkpt>
      <trkpt lat="43.63647" lon="5.63474">
        <ele>261.79998779297</ele>
        <time>2012-12-15T11:30:47.000Z</time>
      </trkpt>
      <trkpt lat="43.6363" lon="5.63541">
        <ele>263</ele>
        <time>2012-12-15T11:30:54.000Z</time>
      </trkpt>
      <trkpt lat="43.6361" lon="5.63601">
        <ele>263.79998779297</ele>
        <time>2012-12-15T11:31:01.000Z</time>
      </trkpt>
      <trkpt lat="43.63593" lon="5.63665">
        <ele>263</ele>
        <time>2012-12-15T11:31:09.000Z</time>
      </trkpt>
      <trkpt lat="43.63589" lon="5.63733">
        <ele>263</ele>
        <time>2012-12-15T11:31:17.000Z</time>
      </trkpt>
      <trkpt lat="43.63587" lon="5.63799">
        <ele>264.79998779297</ele>
        <time>2012-12-15T11:31:25.000Z</time>
      </trkpt>
      <trkpt lat="43.63584" lon="5.63864">
        <ele>266</ele>
        <time>2012-12-15T11:31:35.000Z</time>
      </trkpt>
    </trkseg>
  </trk>
</gpx>